<?xml version="1.0" encoding="UTF-8" standalone="no" ?><gpx xmlns="http://www.topografix.com/GPX/1/1" xmlns:gpxx="http://www.garmin.com/xmlschemas/GpxExtensions/v3" xmlns:wptx1="http://www.garmin.com/xmlschemas/WaypointExtension/v1" xmlns:gpxtpx="http://www.garmin.com/xmlschemas/TrackPointExtension/v1" creator="GuideVTT.com" version="1.1" xmlns:xsi="http://www.w3.org/2001/XMLSchema-instance" xsi:schemaLocation="http://www.topografix.com/GPX/1/1 http://www.topografix.com/GPX/1/1/gpx.xsd http://www.garmin.com/xmlschemas/GpxExtensions/v3 http://www8.garmin.com/xmlschemas/GpxExtensionsv3.xsd http://www.garmin.com/xmlschemas/WaypointExtension/v1 http://www8.garmin.com/xmlschemas/WaypointExtensionv1.xsd http://www.garmin.com/xmlschemas/TrackPointExtension/v1 http://www.garmin.com/xmlschemas/TrackPointExtensionv1.xsd">
<metadata><link href="http://www.garmin.com"><text>Garmin International</text></link><time>2013-06-22T15:13:50Z</time></metadata>
<trk><name>muguet.gpx</name><extensions><gpxx:TrackExtension><gpxx:DisplayColor>Cyan</gpxx:DisplayColor></gpxx:TrackExtension></extensions><trkseg>
<trkpt lat="49.04243926" lon="-1.09674504"><ele></ele><time>2014-7-3T20:8:2Z</time></trkpt>
<trkpt lat="49.04241253" lon="-1.09678393"><ele></ele><time>2014-7-3T20:8:5Z</time></trkpt>
<trkpt lat="49.04238713" lon="-1.09682383"><ele></ele><time>2014-7-3T20:8:8Z</time></trkpt>
<trkpt lat="49.04215110" lon="-1.09724619"><ele></ele><time>2014-7-3T20:8:11Z</time></trkpt>
<trkpt lat="49.04192688" lon="-1.09772815"><ele></ele><time>2014-7-3T20:8:14Z</time></trkpt>
<trkpt lat="49.04172898" lon="-1.09808715"><ele></ele><time>2014-7-3T20:8:17Z</time></trkpt>
<trkpt lat="49.04160937" lon="-1.09830449"><ele></ele><time>2014-7-3T20:8:20Z</time></trkpt>
<trkpt lat="49.04158255" lon="-1.09835386"><ele></ele><time>2014-7-3T20:8:23Z</time></trkpt>
<trkpt lat="49.04144475" lon="-1.09862845"><ele></ele><time>2014-7-3T20:8:26Z</time></trkpt>
<trkpt lat="49.04125440" lon="-1.09903498"><ele></ele><time>2014-7-3T20:8:29Z</time></trkpt>
<trkpt lat="49.04110202" lon="-1.09936522"><ele></ele><time>2014-7-3T20:8:32Z</time></trkpt>
<trkpt lat="49.04102767" lon="-1.09952222"><ele></ele><time>2014-7-3T20:8:35Z</time></trkpt>
<trkpt lat="49.04101132" lon="-1.09956455"><ele></ele><time>2014-7-3T20:8:38Z</time></trkpt>
<trkpt lat="49.04083338" lon="-1.10000895"><ele></ele><time>2014-7-3T20:8:41Z</time></trkpt>
<trkpt lat="49.04070362" lon="-1.10039955"><ele></ele><time>2014-7-3T20:8:44Z</time></trkpt>
<trkpt lat="49.04059324" lon="-1.10082787"><ele></ele><time>2014-7-3T20:8:47Z</time></trkpt>
<trkpt lat="49.04046726" lon="-1.10132575"><ele></ele><time>2014-7-3T20:8:50Z</time></trkpt>
<trkpt lat="49.04033390" lon="-1.10184585"><ele></ele><time>2014-7-3T20:8:53Z</time></trkpt>
<trkpt lat="49.04021949" lon="-1.10223326"><ele></ele><time>2014-7-3T20:8:56Z</time></trkpt>
<trkpt lat="49.04008454" lon="-1.10265277"><ele></ele><time>2014-7-3T20:8:59Z</time></trkpt>
<trkpt lat="49.03995386" lon="-1.10315728"><ele></ele><time>2014-7-3T20:9:2Z</time></trkpt>
<trkpt lat="49.03986552" lon="-1.10369783"><ele></ele><time>2014-7-3T20:9:5Z</time></trkpt>
<trkpt lat="49.03985563" lon="-1.10382264"><ele></ele><time>2014-7-3T20:9:8Z</time></trkpt>
<trkpt lat="49.03985278" lon="-1.10388500"><ele></ele><time>2014-7-3T20:9:11Z</time></trkpt>
<trkpt lat="49.03985588" lon="-1.10424500"><ele></ele><time>2014-7-3T20:9:14Z</time></trkpt>
<trkpt lat="49.03985512" lon="-1.10444985"><ele></ele><time>2014-7-3T20:9:17Z</time></trkpt>
<trkpt lat="49.03983199" lon="-1.10464046"><ele></ele><time>2014-7-3T20:9:20Z</time></trkpt>
<trkpt lat="49.03982998" lon="-1.10473417"><ele></ele><time>2014-7-3T20:9:23Z</time></trkpt>
<trkpt lat="49.03982855" lon="-1.10478270"><ele></ele><time>2014-7-3T20:9:26Z</time></trkpt>
<trkpt lat="49.03979586" lon="-1.10525728"><ele></ele><time>2014-7-3T20:9:29Z</time></trkpt>
<trkpt lat="49.03976435" lon="-1.10544764"><ele></ele><time>2014-7-3T20:9:32Z</time></trkpt>
<trkpt lat="49.03984800" lon="-1.10556808"><ele></ele><time>2014-7-3T20:9:35Z</time></trkpt>
<trkpt lat="49.03992629" lon="-1.10556322"><ele></ele><time>2014-7-3T20:9:38Z</time></trkpt>
<trkpt lat="49.04021613" lon="-1.10550086"><ele></ele><time>2014-7-3T20:9:41Z</time></trkpt>
<trkpt lat="49.04048888" lon="-1.10544873"><ele></ele><time>2014-7-3T20:9:44Z</time></trkpt>
<trkpt lat="49.04054915" lon="-1.10543347"><ele></ele><time>2014-7-3T20:9:47Z</time></trkpt>
<trkpt lat="49.04089733" lon="-1.10534504"><ele></ele><time>2014-7-3T20:9:50Z</time></trkpt>
<trkpt lat="49.04144224" lon="-1.10524806"><ele></ele><time>2014-7-3T20:9:53Z</time></trkpt>
<trkpt lat="49.04198723" lon="-1.10522032"><ele></ele><time>2014-7-3T20:9:56Z</time></trkpt>
<trkpt lat="49.04253138" lon="-1.10526810"><ele></ele><time>2014-7-3T20:9:59Z</time></trkpt>
<trkpt lat="49.04271595" lon="-1.10509308"><ele></ele><time>2014-7-3T20:10:2Z</time></trkpt>
<trkpt lat="49.04272132" lon="-1.10500532"><ele></ele><time>2014-7-3T20:10:5Z</time></trkpt>
<trkpt lat="49.04269064" lon="-1.10449738"><ele></ele><time>2014-7-3T20:10:8Z</time></trkpt>
<trkpt lat="49.04263959" lon="-1.10427308"><ele></ele><time>2014-7-3T20:10:11Z</time></trkpt>
<trkpt lat="49.04256189" lon="-1.10407678"><ele></ele><time>2014-7-3T20:10:14Z</time></trkpt>
<trkpt lat="49.04253499" lon="-1.10401374"><ele></ele><time>2014-7-3T20:10:17Z</time></trkpt>
<trkpt lat="49.04250850" lon="-1.10395088"><ele></ele><time>2014-7-3T20:10:20Z</time></trkpt>
<trkpt lat="49.04235008" lon="-1.10358409"><ele></ele><time>2014-7-3T20:10:23Z</time></trkpt>
<trkpt lat="49.04213752" lon="-1.10308696"><ele></ele><time>2014-7-3T20:10:26Z</time></trkpt>
<trkpt lat="49.04198186" lon="-1.10286375"><ele></ele><time>2014-7-3T20:10:29Z</time></trkpt>
<trkpt lat="49.04185278" lon="-1.10268094"><ele></ele><time>2014-7-3T20:10:32Z</time></trkpt>
<trkpt lat="49.04168406" lon="-1.10245027"><ele></ele><time>2014-7-3T20:10:35Z</time></trkpt>
<trkpt lat="49.04154617" lon="-1.10226494"><ele></ele><time>2014-7-3T20:10:38Z</time></trkpt>
<trkpt lat="49.04145439" lon="-1.10212547"><ele></ele><time>2014-7-3T20:10:41Z</time></trkpt>
<trkpt lat="49.04151499" lon="-1.10196294"><ele></ele><time>2014-7-3T20:10:44Z</time></trkpt>
<trkpt lat="49.04163620" lon="-1.10178164"><ele></ele><time>2014-7-3T20:10:47Z</time></trkpt>
<trkpt lat="49.04171046" lon="-1.10164736"><ele></ele><time>2014-7-3T20:10:50Z</time></trkpt>
<trkpt lat="49.04172244" lon="-1.10162557"><ele></ele><time>2014-7-3T20:10:53Z</time></trkpt>
<trkpt lat="49.04173896" lon="-1.10158098"><ele></ele><time>2014-7-3T20:10:56Z</time></trkpt>
<trkpt lat="49.04183845" lon="-1.10135676"><ele></ele><time>2014-7-3T20:10:59Z</time></trkpt>
<trkpt lat="49.04197063" lon="-1.10098830"><ele></ele><time>2014-7-3T20:11:2Z</time></trkpt>
<trkpt lat="49.04204188" lon="-1.10079736"><ele></ele><time>2014-7-3T20:11:5Z</time></trkpt>
<trkpt lat="49.04218915" lon="-1.10061262"><ele></ele><time>2014-7-3T20:11:8Z</time></trkpt>
<trkpt lat="49.04261604" lon="-1.10032026"><ele></ele><time>2014-7-3T20:11:11Z</time></trkpt>
<trkpt lat="49.04293614" lon="-1.10008925"><ele></ele><time>2014-7-3T20:11:14Z</time></trkpt>
<trkpt lat="49.04325675" lon="-1.09988708"><ele></ele><time>2014-7-3T20:11:17Z</time></trkpt>
<trkpt lat="49.04351609" lon="-1.09970033"><ele></ele><time>2014-7-3T20:11:20Z</time></trkpt>
<trkpt lat="49.04381356" lon="-1.09951467"><ele></ele><time>2014-7-3T20:11:23Z</time></trkpt>
<trkpt lat="49.04385237" lon="-1.09949196"><ele></ele><time>2014-7-3T20:11:26Z</time></trkpt>
<trkpt lat="49.04395899" lon="-1.09940403"><ele></ele><time>2014-7-3T20:11:29Z</time></trkpt>
<trkpt lat="49.04416476" lon="-1.09923396"><ele></ele><time>2014-7-3T20:11:32Z</time></trkpt>
<trkpt lat="49.04441480" lon="-1.09903338"><ele></ele><time>2014-7-3T20:11:35Z</time></trkpt>
<trkpt lat="49.04445796" lon="-1.09900304"><ele></ele><time>2014-7-3T20:11:38Z</time></trkpt>
<trkpt lat="49.04463733" lon="-1.09894973"><ele></ele><time>2014-7-3T20:11:41Z</time></trkpt>
<trkpt lat="49.04496859" lon="-1.09884462"><ele></ele><time>2014-7-3T20:11:44Z</time></trkpt>
<trkpt lat="49.04525726" lon="-1.09862007"><ele></ele><time>2014-7-3T20:11:47Z</time></trkpt>
<trkpt lat="49.04540839" lon="-1.09850666"><ele></ele><time>2014-7-3T20:11:50Z</time></trkpt>
<trkpt lat="49.04567200" lon="-1.09826166"><ele></ele><time>2014-7-3T20:11:53Z</time></trkpt>
<trkpt lat="49.04606729" lon="-1.09791080"><ele></ele><time>2014-7-3T20:11:56Z</time></trkpt>
<trkpt lat="49.04637138" lon="-1.09766185"><ele></ele><time>2014-7-3T20:11:59Z</time></trkpt>
<trkpt lat="49.04672477" lon="-1.09739464"><ele></ele><time>2014-7-3T20:12:2Z</time></trkpt>
<trkpt lat="49.04677707" lon="-1.09734418"><ele></ele><time>2014-7-3T20:12:5Z</time></trkpt>
<trkpt lat="49.04720404" lon="-1.09683556"><ele></ele><time>2014-7-3T20:12:8Z</time></trkpt>
<trkpt lat="49.04769832" lon="-1.09630256"><ele></ele><time>2014-7-3T20:12:11Z</time></trkpt>
<trkpt lat="49.04802815" lon="-1.09602017"><ele></ele><time>2014-7-3T20:12:14Z</time></trkpt>
<trkpt lat="49.04830182" lon="-1.09580300"><ele></ele><time>2014-7-3T20:12:17Z</time></trkpt>
<trkpt lat="49.04870147" lon="-1.09551877"><ele></ele><time>2014-7-3T20:12:20Z</time></trkpt>
<trkpt lat="49.04909818" lon="-1.09524694"><ele></ele><time>2014-7-3T20:12:23Z</time></trkpt>
<trkpt lat="49.04938753" lon="-1.09510034"><ele></ele><time>2014-7-3T20:12:26Z</time></trkpt>
<trkpt lat="49.04980763" lon="-1.09494478"><ele></ele><time>2014-7-3T20:12:29Z</time></trkpt>
<trkpt lat="49.05017903" lon="-1.09475727"><ele></ele><time>2014-7-3T20:12:32Z</time></trkpt>
<trkpt lat="49.05029839" lon="-1.09466272"><ele></ele><time>2014-7-3T20:12:35Z</time></trkpt>
<trkpt lat="49.05043032" lon="-1.09453180"><ele></ele><time>2014-7-3T20:12:38Z</time></trkpt>
<trkpt lat="49.05064490" lon="-1.09434178"><ele></ele><time>2014-7-3T20:12:41Z</time></trkpt>
<trkpt lat="49.05104916" lon="-1.09405244"><ele></ele><time>2014-7-3T20:12:44Z</time></trkpt>
<trkpt lat="49.05111822" lon="-1.09400248"><ele></ele><time>2014-7-3T20:12:47Z</time></trkpt>
<trkpt lat="49.05153229" lon="-1.09388723"><ele></ele><time>2014-7-3T20:12:50Z</time></trkpt>
<trkpt lat="49.05162047" lon="-1.09387248"><ele></ele><time>2014-7-3T20:12:53Z</time></trkpt>
<trkpt lat="49.05192347" lon="-1.09367844"><ele></ele><time>2014-7-3T20:12:56Z</time></trkpt>
<trkpt lat="49.05247333" lon="-1.09317594"><ele></ele><time>2014-7-3T20:12:59Z</time></trkpt>
<trkpt lat="49.05278798" lon="-1.09288869"><ele></ele><time>2014-7-3T20:13:2Z</time></trkpt>
<trkpt lat="49.05284565" lon="-1.09283312"><ele></ele><time>2014-7-3T20:13:5Z</time></trkpt>
<trkpt lat="49.05330406" lon="-1.09248234"><ele></ele><time>2014-7-3T20:13:8Z</time></trkpt>
<trkpt lat="49.05367529" lon="-1.09216827"><ele></ele><time>2014-7-3T20:13:11Z</time></trkpt>
<trkpt lat="49.05409749" lon="-1.09179117"><ele></ele><time>2014-7-3T20:13:14Z</time></trkpt>
<trkpt lat="49.05423176" lon="-1.09165915"><ele></ele><time>2014-7-3T20:13:17Z</time></trkpt>
<trkpt lat="49.05465119" lon="-1.09120762"><ele></ele><time>2014-7-3T20:13:20Z</time></trkpt>
<trkpt lat="49.05476234" lon="-1.09108156"><ele></ele><time>2014-7-3T20:13:23Z</time></trkpt>
<trkpt lat="49.05501279" lon="-1.09085692"><ele></ele><time>2014-7-3T20:13:26Z</time></trkpt>
<trkpt lat="49.05523399" lon="-1.09068350"><ele></ele><time>2014-7-3T20:13:29Z</time></trkpt>
<trkpt lat="49.05545577" lon="-1.09032207"><ele></ele><time>2014-7-3T20:13:32Z</time></trkpt>
<trkpt lat="49.05563422" lon="-1.09000515"><ele></ele><time>2014-7-3T20:13:35Z</time></trkpt>
<trkpt lat="49.05567194" lon="-1.08994564"><ele></ele><time>2014-7-3T20:13:38Z</time></trkpt>
<trkpt lat="49.05596330" lon="-1.08938590"><ele></ele><time>2014-7-3T20:13:41Z</time></trkpt>
<trkpt lat="49.05622389" lon="-1.08894685"><ele></ele><time>2014-7-3T20:13:44Z</time></trkpt>
<trkpt lat="49.05634442" lon="-1.08872213"><ele></ele><time>2014-7-3T20:13:47Z</time></trkpt>
<trkpt lat="49.05654517" lon="-1.08822668"><ele></ele><time>2014-7-3T20:13:50Z</time></trkpt>
<trkpt lat="49.05670292" lon="-1.08804563"><ele></ele><time>2014-7-3T20:13:53Z</time></trkpt>
<trkpt lat="49.05675933" lon="-1.08805116"><ele></ele><time>2014-7-3T20:13:56Z</time></trkpt>
<trkpt lat="49.05687165" lon="-1.08806474"><ele></ele><time>2014-7-3T20:13:59Z</time></trkpt>
<trkpt lat="49.05702973" lon="-1.08810967"><ele></ele><time>2014-7-3T20:14:2Z</time></trkpt>
<trkpt lat="49.05720768" lon="-1.08829306"><ele></ele><time>2014-7-3T20:14:5Z</time></trkpt>
<trkpt lat="49.05731647" lon="-1.08837797"><ele></ele><time>2014-7-3T20:14:8Z</time></trkpt>
<trkpt lat="49.05741437" lon="-1.08844109"><ele></ele><time>2014-7-3T20:14:11Z</time></trkpt>
<trkpt lat="49.05754832" lon="-1.08850320"><ele></ele><time>2014-7-3T20:14:14Z</time></trkpt>
<trkpt lat="49.05765602" lon="-1.08852357"><ele></ele><time>2014-7-3T20:14:17Z</time></trkpt>
<trkpt lat="49.05774152" lon="-1.08853798"><ele></ele><time>2014-7-3T20:14:20Z</time></trkpt>
<trkpt lat="49.05787127" lon="-1.08856128"><ele></ele><time>2014-7-3T20:14:23Z</time></trkpt>
<trkpt lat="49.05805064" lon="-1.08857864"><ele></ele><time>2014-7-3T20:14:26Z</time></trkpt>
<trkpt lat="49.05825918" lon="-1.08857478"><ele></ele><time>2014-7-3T20:14:29Z</time></trkpt>
<trkpt lat="49.05842707" lon="-1.08854025"><ele></ele><time>2014-7-3T20:14:32Z</time></trkpt>
<trkpt lat="49.05864618" lon="-1.08849222"><ele></ele><time>2014-7-3T20:14:35Z</time></trkpt>
<trkpt lat="49.05885078" lon="-1.08845970"><ele></ele><time>2014-7-3T20:14:38Z</time></trkpt>
<trkpt lat="49.05903602" lon="-1.08843246"><ele></ele><time>2014-7-3T20:14:41Z</time></trkpt>
<trkpt lat="49.05928052" lon="-1.08843086"><ele></ele><time>2014-7-3T20:14:44Z</time></trkpt>
<trkpt lat="49.05954673" lon="-1.08844260"><ele></ele><time>2014-7-3T20:14:47Z</time></trkpt>
<trkpt lat="49.05982149" lon="-1.08848560"><ele></ele><time>2014-7-3T20:14:50Z</time></trkpt>
<trkpt lat="49.06018149" lon="-1.08854276"><ele></ele><time>2014-7-3T20:14:53Z</time></trkpt>
<trkpt lat="49.06022298" lon="-1.08855106"><ele></ele><time>2014-7-3T20:14:56Z</time></trkpt>
<trkpt lat="49.06040613" lon="-1.08856472"><ele></ele><time>2014-7-3T20:14:59Z</time></trkpt>
<trkpt lat="49.06067275" lon="-1.08848836"><ele></ele><time>2014-7-3T20:15:2Z</time></trkpt>
<trkpt lat="49.06083394" lon="-1.08840345"><ele></ele><time>2014-7-3T20:15:5Z</time></trkpt>
<trkpt lat="49.06112915" lon="-1.08829223"><ele></ele><time>2014-7-3T20:15:8Z</time></trkpt>
<trkpt lat="49.06141237" lon="-1.08830866"><ele></ele><time>2014-7-3T20:15:11Z</time></trkpt>
<trkpt lat="49.06149988" lon="-1.08831435"><ele></ele><time>2014-7-3T20:15:14Z</time></trkpt>
<trkpt lat="49.06161170" lon="-1.08833523"><ele></ele><time>2014-7-3T20:15:17Z</time></trkpt>
<trkpt lat="49.06189844" lon="-1.08827052"><ele></ele><time>2014-7-3T20:15:20Z</time></trkpt>
<trkpt lat="49.06210187" lon="-1.08806717"><ele></ele><time>2014-7-3T20:15:23Z</time></trkpt>
<trkpt lat="49.06229339" lon="-1.08784338"><ele></ele><time>2014-7-3T20:15:26Z</time></trkpt>
<trkpt lat="49.06238266" lon="-1.08770214"><ele></ele><time>2014-7-3T20:15:29Z</time></trkpt>
<trkpt lat="49.06249582" lon="-1.08752344"><ele></ele><time>2014-7-3T20:15:32Z</time></trkpt>
<trkpt lat="49.06265776" lon="-1.08732495"><ele></ele><time>2014-7-3T20:15:35Z</time></trkpt>
<trkpt lat="49.06283160" lon="-1.08712689"><ele></ele><time>2014-7-3T20:15:38Z</time></trkpt>
<trkpt lat="49.06302690" lon="-1.08687778"><ele></ele><time>2014-7-3T20:15:41Z</time></trkpt>
<trkpt lat="49.06317458" lon="-1.08667796"><ele></ele><time>2014-7-3T20:15:44Z</time></trkpt>
<trkpt lat="49.06332957" lon="-1.08647143"><ele></ele><time>2014-7-3T20:15:47Z</time></trkpt>
<trkpt lat="49.06355655" lon="-1.08614872"><ele></ele><time>2014-7-3T20:15:50Z</time></trkpt>
<trkpt lat="49.06379359" lon="-1.08578964"><ele></ele><time>2014-7-3T20:15:53Z</time></trkpt>
<trkpt lat="49.06389124" lon="-1.08559703"><ele></ele><time>2014-7-3T20:15:56Z</time></trkpt>
<trkpt lat="49.06400506" lon="-1.08531363"><ele></ele><time>2014-7-3T20:15:59Z</time></trkpt>
<trkpt lat="49.06416826" lon="-1.08489278"><ele></ele><time>2014-7-3T20:16:2Z</time></trkpt>
<trkpt lat="49.06429667" lon="-1.08451182"><ele></ele><time>2014-7-3T20:16:5Z</time></trkpt>
<trkpt lat="49.06444478" lon="-1.08410773"><ele></ele><time>2014-7-3T20:16:8Z</time></trkpt>
<trkpt lat="49.06455835" lon="-1.08383440"><ele></ele><time>2014-7-3T20:16:11Z</time></trkpt>
<trkpt lat="49.06467738" lon="-1.08352108"><ele></ele><time>2014-7-3T20:16:14Z</time></trkpt>
<trkpt lat="49.06476899" lon="-1.08324196"><ele></ele><time>2014-7-3T20:16:17Z</time></trkpt>
<trkpt lat="49.06480084" lon="-1.08309830"><ele></ele><time>2014-7-3T20:16:20Z</time></trkpt>
<trkpt lat="49.06480595" lon="-1.08307860"><ele></ele><time>2014-7-3T20:16:23Z</time></trkpt>
<trkpt lat="49.06482557" lon="-1.08301288"><ele></ele><time>2014-7-3T20:16:26Z</time></trkpt>
<trkpt lat="49.06485600" lon="-1.08292630"><ele></ele><time>2014-7-3T20:16:29Z</time></trkpt>
<trkpt lat="49.06490813" lon="-1.08274768"><ele></ele><time>2014-7-3T20:16:32Z</time></trkpt>
<trkpt lat="49.06489715" lon="-1.08270879"><ele></ele><time>2014-7-3T20:16:35Z</time></trkpt>
<trkpt lat="49.06483085" lon="-1.08264090"><ele></ele><time>2014-7-3T20:16:38Z</time></trkpt>
<trkpt lat="49.06481375" lon="-1.08260552"><ele></ele><time>2014-7-3T20:16:41Z</time></trkpt>
<trkpt lat="49.06470143" lon="-1.08249656"><ele></ele><time>2014-7-3T20:16:44Z</time></trkpt>
<trkpt lat="49.06463806" lon="-1.08242079"><ele></ele><time>2014-7-3T20:16:47Z</time></trkpt>
<trkpt lat="49.06448048" lon="-1.08227192"><ele></ele><time>2014-7-3T20:16:50Z</time></trkpt>
<trkpt lat="49.06435375" lon="-1.08215357"><ele></ele><time>2014-7-3T20:16:53Z</time></trkpt>
<trkpt lat="49.06417714" lon="-1.08196942"><ele></ele><time>2014-7-3T20:16:56Z</time></trkpt>
<trkpt lat="49.06394589" lon="-1.08176608"><ele></ele><time>2014-7-3T20:16:59Z</time></trkpt>
<trkpt lat="49.06360885" lon="-1.08151546"><ele></ele><time>2014-7-3T20:17:2Z</time></trkpt>
<trkpt lat="49.06328196" lon="-1.08128454"><ele></ele><time>2014-7-3T20:17:5Z</time></trkpt>
<trkpt lat="49.06283286" lon="-1.08097759"><ele></ele><time>2014-7-3T20:17:8Z</time></trkpt>
<trkpt lat="49.06242675" lon="-1.08071398"><ele></ele><time>2014-7-3T20:17:11Z</time></trkpt>
<trkpt lat="49.06185393" lon="-1.08035498"><ele></ele><time>2014-7-3T20:17:14Z</time></trkpt>
<trkpt lat="49.06157657" lon="-1.08020637"><ele></ele><time>2014-7-3T20:17:17Z</time></trkpt>
<trkpt lat="49.06124516" lon="-1.07999004"><ele></ele><time>2014-7-3T20:17:20Z</time></trkpt>
<trkpt lat="49.06070243" lon="-1.07962165"><ele></ele><time>2014-7-3T20:17:23Z</time></trkpt>
<trkpt lat="49.05993615" lon="-1.07909066"><ele></ele><time>2014-7-3T20:17:26Z</time></trkpt>
<trkpt lat="49.05940524" lon="-1.07877374"><ele></ele><time>2014-7-3T20:17:29Z</time></trkpt>
<trkpt lat="49.05903988" lon="-1.07865027"><ele></ele><time>2014-7-3T20:17:32Z</time></trkpt>
<trkpt lat="49.05855289" lon="-1.07857433"><ele></ele><time>2014-7-3T20:17:35Z</time></trkpt>
<trkpt lat="49.05793414" lon="-1.07816638"><ele></ele><time>2014-7-3T20:17:38Z</time></trkpt>
<trkpt lat="49.05705010" lon="-1.07753145"><ele></ele><time>2014-7-3T20:17:41Z</time></trkpt>
<trkpt lat="49.05667953" lon="-1.07758393"><ele></ele><time>2014-7-3T20:17:44Z</time></trkpt>
<trkpt lat="49.05656043" lon="-1.07762977"><ele></ele><time>2014-7-3T20:17:47Z</time></trkpt>
<trkpt lat="49.05625356" lon="-1.07767336"><ele></ele><time>2014-7-3T20:17:50Z</time></trkpt>
<trkpt lat="49.05622029" lon="-1.07749768"><ele></ele><time>2014-7-3T20:17:53Z</time></trkpt>
<trkpt lat="49.05624518" lon="-1.07741646"><ele></ele><time>2014-7-3T20:17:56Z</time></trkpt>
<trkpt lat="49.05634266" lon="-1.07706576"><ele></ele><time>2014-7-3T20:17:59Z</time></trkpt>
<trkpt lat="49.05634979" lon="-1.07688353"><ele></ele><time>2014-7-3T20:18:2Z</time></trkpt>
<trkpt lat="49.05632313" lon="-1.07684523"><ele></ele><time>2014-7-3T20:18:5Z</time></trkpt>
<trkpt lat="49.05626530" lon="-1.07677767"><ele></ele><time>2014-7-3T20:18:8Z</time></trkpt>
<trkpt lat="49.05616882" lon="-1.07663803"><ele></ele><time>2014-7-3T20:18:11Z</time></trkpt>
<trkpt lat="49.05602373" lon="-1.07636872"><ele></ele><time>2014-7-3T20:18:14Z</time></trkpt>
<trkpt lat="49.05575870" lon="-1.07596706"><ele></ele><time>2014-7-3T20:18:17Z</time></trkpt>
<trkpt lat="49.05572567" lon="-1.07591492"><ele></ele><time>2014-7-3T20:18:20Z</time></trkpt>
<trkpt lat="49.05551713" lon="-1.07555123"><ele></ele><time>2014-7-3T20:18:23Z</time></trkpt>
<trkpt lat="49.05545854" lon="-1.07540497"><ele></ele><time>2014-7-3T20:18:26Z</time></trkpt>
<trkpt lat="49.05545184" lon="-1.07515812"><ele></ele><time>2014-7-3T20:18:29Z</time></trkpt>
<trkpt lat="49.05552945" lon="-1.07492670"><ele></ele><time>2014-7-3T20:18:32Z</time></trkpt>
<trkpt lat="49.05567010" lon="-1.07460173"><ele></ele><time>2014-7-3T20:18:35Z</time></trkpt>
<trkpt lat="49.05569675" lon="-1.07452487"><ele></ele><time>2014-7-3T20:18:38Z</time></trkpt>
<trkpt lat="49.05569198" lon="-1.07419068"><ele></ele><time>2014-7-3T20:18:41Z</time></trkpt>
<trkpt lat="49.05559969" lon="-1.07406286"><ele></ele><time>2014-7-3T20:18:44Z</time></trkpt>
<trkpt lat="49.05544857" lon="-1.07386119"><ele></ele><time>2014-7-3T20:18:47Z</time></trkpt>
<trkpt lat="49.05530943" lon="-1.07372968"><ele></ele><time>2014-7-3T20:18:50Z</time></trkpt>
<trkpt lat="49.05513953" lon="-1.07362783"><ele></ele><time>2014-7-3T20:18:53Z</time></trkpt>
<trkpt lat="49.05498848" lon="-1.07354963"><ele></ele><time>2014-7-3T20:18:56Z</time></trkpt>
<trkpt lat="49.05483015" lon="-1.07346707"><ele></ele><time>2014-7-3T20:18:59Z</time></trkpt>
<trkpt lat="49.05469897" lon="-1.07338962"><ele></ele><time>2014-7-3T20:19:2Z</time></trkpt>
<trkpt lat="49.05453645" lon="-1.07328619"><ele></ele><time>2014-7-3T20:19:5Z</time></trkpt>
<trkpt lat="49.05435858" lon="-1.07315107"><ele></ele><time>2014-7-3T20:19:8Z</time></trkpt>
<trkpt lat="49.05420167" lon="-1.07303993"><ele></ele><time>2014-7-3T20:19:11Z</time></trkpt>
<trkpt lat="49.05402507" lon="-1.07286064"><ele></ele><time>2014-7-3T20:19:14Z</time></trkpt>
<trkpt lat="49.05385726" lon="-1.07273575"><ele></ele><time>2014-7-3T20:19:17Z</time></trkpt>
<trkpt lat="49.05362165" lon="-1.07254816"><ele></ele><time>2014-7-3T20:19:20Z</time></trkpt>
<trkpt lat="49.05329995" lon="-1.07228958"><ele></ele><time>2014-7-3T20:19:23Z</time></trkpt>
<trkpt lat="49.05303407" lon="-1.07207383"><ele></ele><time>2014-7-3T20:19:26Z</time></trkpt>
<trkpt lat="49.05279469" lon="-1.07186638"><ele></ele><time>2014-7-3T20:19:29Z</time></trkpt>
<trkpt lat="49.05258464" lon="-1.07167502"><ele></ele><time>2014-7-3T20:19:32Z</time></trkpt>
<trkpt lat="49.05249093" lon="-1.07158349"><ele></ele><time>2014-7-3T20:19:35Z</time></trkpt>
<trkpt lat="49.05250057" lon="-1.07137763"><ele></ele><time>2014-7-3T20:19:38Z</time></trkpt>
<trkpt lat="49.05264666" lon="-1.07099005"><ele></ele><time>2014-7-3T20:19:41Z</time></trkpt>
<trkpt lat="49.05285009" lon="-1.07042008"><ele></ele><time>2014-7-3T20:19:44Z</time></trkpt>
<trkpt lat="49.05301672" lon="-1.06996570"><ele></ele><time>2014-7-3T20:19:47Z</time></trkpt>
<trkpt lat="49.05311647" lon="-1.06969270"><ele></ele><time>2014-7-3T20:19:50Z</time></trkpt>
<trkpt lat="49.05322217" lon="-1.06939095"><ele></ele><time>2014-7-3T20:19:53Z</time></trkpt>
<trkpt lat="49.05325108" lon="-1.06929565"><ele></ele><time>2014-7-3T20:19:56Z</time></trkpt>
<trkpt lat="49.05339207" lon="-1.06875510"><ele></ele><time>2014-7-3T20:19:59Z</time></trkpt>
<trkpt lat="49.05349759" lon="-1.06836249"><ele></ele><time>2014-7-3T20:20:2Z</time></trkpt>
<trkpt lat="49.05359633" lon="-1.06797257"><ele></ele><time>2014-7-3T20:20:5Z</time></trkpt>
<trkpt lat="49.05370287" lon="-1.06757803"><ele></ele><time>2014-7-3T20:20:8Z</time></trkpt>
<trkpt lat="49.05373748" lon="-1.06744006"><ele></ele><time>2014-7-3T20:20:11Z</time></trkpt>
<trkpt lat="49.05385156" lon="-1.06712356"><ele></ele><time>2014-7-3T20:20:14Z</time></trkpt>
<trkpt lat="49.05387059" lon="-1.06699976"><ele></ele><time>2014-7-3T20:20:17Z</time></trkpt>
<trkpt lat="49.05397059" lon="-1.06658335"><ele></ele><time>2014-7-3T20:20:20Z</time></trkpt>
<trkpt lat="49.05399280" lon="-1.06650045"><ele></ele><time>2014-7-3T20:20:23Z</time></trkpt>
<trkpt lat="49.05412456" lon="-1.06590073"><ele></ele><time>2014-7-3T20:20:26Z</time></trkpt>
<trkpt lat="49.05422472" lon="-1.06547283"><ele></ele><time>2014-7-3T20:20:29Z</time></trkpt>
<trkpt lat="49.05429932" lon="-1.06518173"><ele></ele><time>2014-7-3T20:20:32Z</time></trkpt>
<trkpt lat="49.05445254" lon="-1.06508500"><ele></ele><time>2014-7-3T20:20:35Z</time></trkpt>
<trkpt lat="49.05480299" lon="-1.06522146"><ele></ele><time>2014-7-3T20:20:38Z</time></trkpt>
<trkpt lat="49.05511195" lon="-1.06534274"><ele></ele><time>2014-7-3T20:20:41Z</time></trkpt>
<trkpt lat="49.05526106" lon="-1.06539605"><ele></ele><time>2014-7-3T20:20:44Z</time></trkpt>
<trkpt lat="49.05557622" lon="-1.06551600"><ele></ele><time>2014-7-3T20:20:47Z</time></trkpt>
<trkpt lat="49.05589834" lon="-1.06564659"><ele></ele><time>2014-7-3T20:20:50Z</time></trkpt>
<trkpt lat="49.05623915" lon="-1.06579956"><ele></ele><time>2014-7-3T20:20:53Z</time></trkpt>
<trkpt lat="49.05629857" lon="-1.06582319"><ele></ele><time>2014-7-3T20:20:56Z</time></trkpt>
<trkpt lat="49.05649463" lon="-1.06577533"><ele></ele><time>2014-7-3T20:20:59Z</time></trkpt>
<trkpt lat="49.05664793" lon="-1.06562018"><ele></ele><time>2014-7-3T20:21:2Z</time></trkpt>
<trkpt lat="49.05695655" lon="-1.06507528"><ele></ele><time>2014-7-3T20:21:5Z</time></trkpt>
<trkpt lat="49.05724204" lon="-1.06453347"><ele></ele><time>2014-7-3T20:21:8Z</time></trkpt>
<trkpt lat="49.05746349" lon="-1.06406685"><ele></ele><time>2014-7-3T20:21:11Z</time></trkpt>
<trkpt lat="49.05761034" lon="-1.06374373"><ele></ele><time>2014-7-3T20:21:14Z</time></trkpt>
<trkpt lat="49.05757229" lon="-1.06355932"><ele></ele><time>2014-7-3T20:21:17Z</time></trkpt>
<trkpt lat="49.05729585" lon="-1.06330066"><ele></ele><time>2014-7-3T20:21:20Z</time></trkpt>
<trkpt lat="49.05708983" lon="-1.06311349"><ele></ele><time>2014-7-3T20:21:23Z</time></trkpt>
<trkpt lat="49.05687366" lon="-1.06290596"><ele></ele><time>2014-7-3T20:21:26Z</time></trkpt>
<trkpt lat="49.05655632" lon="-1.06262114"><ele></ele><time>2014-7-3T20:21:29Z</time></trkpt>
<trkpt lat="49.05616698" lon="-1.06227455"><ele></ele><time>2014-7-3T20:21:32Z</time></trkpt>
<trkpt lat="49.05577169" lon="-1.06191664"><ele></ele><time>2014-7-3T20:21:35Z</time></trkpt>
<trkpt lat="49.05538176" lon="-1.06154943"><ele></ele><time>2014-7-3T20:21:38Z</time></trkpt>
<trkpt lat="49.05496543" lon="-1.06111164"><ele></ele><time>2014-7-3T20:21:41Z</time></trkpt>
<trkpt lat="49.05465354" lon="-1.06078969"><ele></ele><time>2014-7-3T20:21:44Z</time></trkpt>
<trkpt lat="49.05427988" lon="-1.06041938"><ele></ele><time>2014-7-3T20:21:47Z</time></trkpt>
<trkpt lat="49.05390043" lon="-1.06006139"><ele></ele><time>2014-7-3T20:21:50Z</time></trkpt>
<trkpt lat="49.05358887" lon="-1.05979543"><ele></ele><time>2014-7-3T20:21:53Z</time></trkpt>
<trkpt lat="49.05328017" lon="-1.05952377"><ele></ele><time>2014-7-3T20:21:56Z</time></trkpt>
<trkpt lat="49.05290784" lon="-1.05917584"><ele></ele><time>2014-7-3T20:21:59Z</time></trkpt>
<trkpt lat="49.05256058" lon="-1.05881450"><ele></ele><time>2014-7-3T20:22:2Z</time></trkpt>
<trkpt lat="49.05211785" lon="-1.05840353"><ele></ele><time>2014-7-3T20:22:5Z</time></trkpt>
<trkpt lat="49.05193345" lon="-1.05823975"><ele></ele><time>2014-7-3T20:22:8Z</time></trkpt>
<trkpt lat="49.05188357" lon="-1.05819298"><ele></ele><time>2014-7-3T20:22:11Z</time></trkpt>
<trkpt lat="49.05175164" lon="-1.05820170"><ele></ele><time>2014-7-3T20:22:14Z</time></trkpt>
<trkpt lat="49.05172390" lon="-1.05826498"><ele></ele><time>2014-7-3T20:22:17Z</time></trkpt>
<trkpt lat="49.05167579" lon="-1.05840362"><ele></ele><time>2014-7-3T20:22:20Z</time></trkpt>
<trkpt lat="49.05148443" lon="-1.05889220"><ele></ele><time>2014-7-3T20:22:23Z</time></trkpt>
<trkpt lat="49.05142223" lon="-1.05910887"><ele></ele><time>2014-7-3T20:22:26Z</time></trkpt>
<trkpt lat="49.05127857" lon="-1.05963358"><ele></ele><time>2014-7-3T20:22:29Z</time></trkpt>
<trkpt lat="49.05102594" lon="-1.06038309"><ele></ele><time>2014-7-3T20:22:32Z</time></trkpt>
<trkpt lat="49.05085922" lon="-1.06084275"><ele></ele><time>2014-7-3T20:22:35Z</time></trkpt>
<trkpt lat="49.05080097" lon="-1.06096999"><ele></ele><time>2014-7-3T20:22:38Z</time></trkpt>
<trkpt lat="49.05077666" lon="-1.06100008"><ele></ele><time>2014-7-3T20:22:41Z</time></trkpt>
<trkpt lat="49.05070877" lon="-1.06094006"><ele></ele><time>2014-7-3T20:22:44Z</time></trkpt>
<trkpt lat="49.05062604" lon="-1.06075206"><ele></ele><time>2014-7-3T20:22:47Z</time></trkpt>
<trkpt lat="49.05045480" lon="-1.06077435"><ele></ele><time>2014-7-3T20:22:50Z</time></trkpt>
<trkpt lat="49.05022287" lon="-1.06091735"><ele></ele><time>2014-7-3T20:22:53Z</time></trkpt>
<trkpt lat="49.04993889" lon="-1.06108482"><ele></ele><time>2014-7-3T20:22:56Z</time></trkpt>
<trkpt lat="49.04976253" lon="-1.06135053"><ele></ele><time>2014-7-3T20:22:59Z</time></trkpt>
<trkpt lat="49.04961845" lon="-1.06152428"><ele></ele><time>2014-7-3T20:23:2Z</time></trkpt>
<trkpt lat="49.04957008" lon="-1.06151884"><ele></ele><time>2014-7-3T20:23:5Z</time></trkpt>
<trkpt lat="49.04899232" lon="-1.06137475"><ele></ele><time>2014-7-3T20:23:8Z</time></trkpt>
<trkpt lat="49.04879166" lon="-1.06130476"><ele></ele><time>2014-7-3T20:23:11Z</time></trkpt>
<trkpt lat="49.04863634" lon="-1.06146217"><ele></ele><time>2014-7-3T20:23:14Z</time></trkpt>
<trkpt lat="49.04862050" lon="-1.06154038"><ele></ele><time>2014-7-3T20:23:17Z</time></trkpt>
<trkpt lat="49.04845068" lon="-1.06242115"><ele></ele><time>2014-7-3T20:23:20Z</time></trkpt>
<trkpt lat="49.04831599" lon="-1.06333620"><ele></ele><time>2014-7-3T20:23:23Z</time></trkpt>
<trkpt lat="49.04825974" lon="-1.06384129"><ele></ele><time>2014-7-3T20:23:26Z</time></trkpt>
<trkpt lat="49.04818112" lon="-1.06432317"><ele></ele><time>2014-7-3T20:23:29Z</time></trkpt>
<trkpt lat="49.04816176" lon="-1.06439902"><ele></ele><time>2014-7-3T20:23:32Z</time></trkpt>
<trkpt lat="49.04809345" lon="-1.06477713"><ele></ele><time>2014-7-3T20:23:35Z</time></trkpt>
<trkpt lat="49.04802882" lon="-1.06515516"><ele></ele><time>2014-7-3T20:23:38Z</time></trkpt>
<trkpt lat="49.04803075" lon="-1.06562354"><ele></ele><time>2014-7-3T20:23:41Z</time></trkpt>
<trkpt lat="49.04803335" lon="-1.06570115"><ele></ele><time>2014-7-3T20:23:44Z</time></trkpt>
<trkpt lat="49.04805195" lon="-1.06588195"><ele></ele><time>2014-7-3T20:23:47Z</time></trkpt>
<trkpt lat="49.04797224" lon="-1.06602528"><ele></ele><time>2014-7-3T20:23:50Z</time></trkpt>
<trkpt lat="49.04774610" lon="-1.06602662"><ele></ele><time>2014-7-3T20:23:53Z</time></trkpt>
<trkpt lat="49.04763537" lon="-1.06597792"><ele></ele><time>2014-7-3T20:23:56Z</time></trkpt>
<trkpt lat="49.04710547" lon="-1.06572739"><ele></ele><time>2014-7-3T20:23:59Z</time></trkpt>
<trkpt lat="49.04673457" lon="-1.06557626"><ele></ele><time>2014-7-3T20:24:2Z</time></trkpt>
<trkpt lat="49.04667296" lon="-1.06555539"><ele></ele><time>2014-7-3T20:24:5Z</time></trkpt>
<trkpt lat="49.04623912" lon="-1.06527334"><ele></ele><time>2014-7-3T20:24:8Z</time></trkpt>
<trkpt lat="49.04602840" lon="-1.06518424"><ele></ele><time>2014-7-3T20:24:11Z</time></trkpt>
<trkpt lat="49.04574735" lon="-1.06518374"><ele></ele><time>2014-7-3T20:24:14Z</time></trkpt>
<trkpt lat="49.04551148" lon="-1.06524887"><ele></ele><time>2014-7-3T20:24:17Z</time></trkpt>
<trkpt lat="49.04534963" lon="-1.06527979"><ele></ele><time>2014-7-3T20:24:20Z</time></trkpt>
<trkpt lat="49.04523983" lon="-1.06529019"><ele></ele><time>2014-7-3T20:24:23Z</time></trkpt>
<trkpt lat="49.04518384" lon="-1.06529346"><ele></ele><time>2014-7-3T20:24:26Z</time></trkpt>
<trkpt lat="49.04483540" lon="-1.06532028"><ele></ele><time>2014-7-3T20:24:29Z</time></trkpt>
<trkpt lat="49.04477564" lon="-1.06532162"><ele></ele><time>2014-7-3T20:24:32Z</time></trkpt>
<trkpt lat="49.04457942" lon="-1.06517955"><ele></ele><time>2014-7-3T20:24:35Z</time></trkpt>
<trkpt lat="49.04455419" lon="-1.06510696"><ele></ele><time>2014-7-3T20:24:38Z</time></trkpt>
<trkpt lat="49.04433215" lon="-1.06437497"><ele></ele><time>2014-7-3T20:24:41Z</time></trkpt>
<trkpt lat="49.04414549" lon="-1.06399904"><ele></ele><time>2014-7-3T20:24:44Z</time></trkpt>
<trkpt lat="49.04373519" lon="-1.06350417"><ele></ele><time>2014-7-3T20:24:47Z</time></trkpt>
<trkpt lat="49.04338458" lon="-1.06329127"><ele></ele><time>2014-7-3T20:24:50Z</time></trkpt>
<trkpt lat="49.04309347" lon="-1.06321516"><ele></ele><time>2014-7-3T20:24:53Z</time></trkpt>
<trkpt lat="49.04276742" lon="-1.06323444"><ele></ele><time>2014-7-3T20:24:56Z</time></trkpt>
<trkpt lat="49.04248562" lon="-1.06325029"><ele></ele><time>2014-7-3T20:24:59Z</time></trkpt>
<trkpt lat="49.04211564" lon="-1.06341868"><ele></ele><time>2014-7-3T20:25:2Z</time></trkpt>
<trkpt lat="49.04169923" lon="-1.06368396"><ele></ele><time>2014-7-3T20:25:5Z</time></trkpt>
<trkpt lat="49.04145146" lon="-1.06397222"><ele></ele><time>2014-7-3T20:25:8Z</time></trkpt>
<trkpt lat="49.04129379" lon="-1.06414623"><ele></ele><time>2014-7-3T20:25:11Z</time></trkpt>
<trkpt lat="49.04106799" lon="-1.06423583"><ele></ele><time>2014-7-3T20:25:14Z</time></trkpt>
<trkpt lat="49.04092197" lon="-1.06426064"><ele></ele><time>2014-7-3T20:25:17Z</time></trkpt>
<trkpt lat="49.04057639" lon="-1.06438025"><ele></ele><time>2014-7-3T20:25:20Z</time></trkpt>
<trkpt lat="49.04018579" lon="-1.06457714"><ele></ele><time>2014-7-3T20:25:23Z</time></trkpt>
<trkpt lat="49.03975982" lon="-1.06485374"><ele></ele><time>2014-7-3T20:25:26Z</time></trkpt>
<trkpt lat="49.03953695" lon="-1.06521710"><ele></ele><time>2014-7-3T20:25:29Z</time></trkpt>
<trkpt lat="49.03929203" lon="-1.06554416"><ele></ele><time>2014-7-3T20:25:32Z</time></trkpt>
<trkpt lat="49.03900470" lon="-1.06583099"><ele></ele><time>2014-7-3T20:25:35Z</time></trkpt>
<trkpt lat="49.03870915" lon="-1.06599837"><ele></ele><time>2014-7-3T20:25:38Z</time></trkpt>
<trkpt lat="49.03835904" lon="-1.06619879"><ele></ele><time>2014-7-3T20:25:41Z</time></trkpt>
<trkpt lat="49.03830363" lon="-1.06623349"><ele></ele><time>2014-7-3T20:25:44Z</time></trkpt>
<trkpt lat="49.03809576" lon="-1.06638738"><ele></ele><time>2014-7-3T20:25:47Z</time></trkpt>
<trkpt lat="49.03788529" lon="-1.06634513"><ele></ele><time>2014-7-3T20:25:50Z</time></trkpt>
<trkpt lat="49.03784020" lon="-1.06612092"><ele></ele><time>2014-7-3T20:25:53Z</time></trkpt>
<trkpt lat="49.03770433" lon="-1.06609099"><ele></ele><time>2014-7-3T20:25:56Z</time></trkpt>
<trkpt lat="49.03768220" lon="-1.06610114"><ele></ele><time>2014-7-3T20:25:59Z</time></trkpt>
<trkpt lat="49.03747584" lon="-1.06627305"><ele></ele><time>2014-7-3T20:26:2Z</time></trkpt>
<trkpt lat="49.03734533" lon="-1.06643532"><ele></ele><time>2014-7-3T20:26:5Z</time></trkpt>
<trkpt lat="49.03724140" lon="-1.06656407"><ele></ele><time>2014-7-3T20:26:8Z</time></trkpt>
<trkpt lat="49.03722765" lon="-1.06658385"><ele></ele><time>2014-7-3T20:26:11Z</time></trkpt>
<trkpt lat="49.03718574" lon="-1.06664479"><ele></ele><time>2014-7-3T20:26:14Z</time></trkpt>
<trkpt lat="49.03715733" lon="-1.06669944"><ele></ele><time>2014-7-3T20:26:17Z</time></trkpt>
<trkpt lat="49.03708725" lon="-1.06685232"><ele></ele><time>2014-7-3T20:26:20Z</time></trkpt>
<trkpt lat="49.03697980" lon="-1.06704662"><ele></ele><time>2014-7-3T20:26:23Z</time></trkpt>
<trkpt lat="49.03683135" lon="-1.06723890"><ele></ele><time>2014-7-3T20:26:26Z</time></trkpt>
<trkpt lat="49.03669892" lon="-1.06735759"><ele></ele><time>2014-7-3T20:26:29Z</time></trkpt>
<trkpt lat="49.03658350" lon="-1.06745129"><ele></ele><time>2014-7-3T20:26:32Z</time></trkpt>
<trkpt lat="49.03656716" lon="-1.06745792"><ele></ele><time>2014-7-3T20:26:35Z</time></trkpt>
<trkpt lat="49.03646272" lon="-1.06750502"><ele></ele><time>2014-7-3T20:26:38Z</time></trkpt>
<trkpt lat="49.03644344" lon="-1.06751005"><ele></ele><time>2014-7-3T20:26:41Z</time></trkpt>
<trkpt lat="49.03636389" lon="-1.06748248"><ele></ele><time>2014-7-3T20:26:44Z</time></trkpt>
<trkpt lat="49.03635166" lon="-1.06747694"><ele></ele><time>2014-7-3T20:26:47Z</time></trkpt>
<trkpt lat="49.03621143" lon="-1.06743269"><ele></ele><time>2014-7-3T20:26:50Z</time></trkpt>
<trkpt lat="49.03618737" lon="-1.06742967"><ele></ele><time>2014-7-3T20:26:53Z</time></trkpt>
<trkpt lat="49.03611478" lon="-1.06741383"><ele></ele><time>2014-7-3T20:26:56Z</time></trkpt>
<trkpt lat="49.03598688" lon="-1.06736127"><ele></ele><time>2014-7-3T20:26:59Z</time></trkpt>
<trkpt lat="49.03579393" lon="-1.06731542"><ele></ele><time>2014-7-3T20:27:2Z</time></trkpt>
<trkpt lat="49.03561497" lon="-1.06730017"><ele></ele><time>2014-7-3T20:27:5Z</time></trkpt>
<trkpt lat="49.03546577" lon="-1.06723295"><ele></ele><time>2014-7-3T20:27:8Z</time></trkpt>
<trkpt lat="49.03530769" lon="-1.06719883"><ele></ele><time>2014-7-3T20:27:11Z</time></trkpt>
<trkpt lat="49.03510133" lon="-1.06716237"><ele></ele><time>2014-7-3T20:27:14Z</time></trkpt>
<trkpt lat="49.03483177" lon="-1.06708928"><ele></ele><time>2014-7-3T20:27:17Z</time></trkpt>
<trkpt lat="49.03452105" lon="-1.06696942"><ele></ele><time>2014-7-3T20:27:20Z</time></trkpt>
<trkpt lat="49.03438182" lon="-1.06690957"><ele></ele><time>2014-7-3T20:27:23Z</time></trkpt>
<trkpt lat="49.03409584" lon="-1.06682282"><ele></ele><time>2014-7-3T20:27:26Z</time></trkpt>
<trkpt lat="49.03405577" lon="-1.06681578"><ele></ele><time>2014-7-3T20:27:29Z</time></trkpt>
<trkpt lat="49.03379300" lon="-1.06674856"><ele></ele><time>2014-7-3T20:27:32Z</time></trkpt>
<trkpt lat="49.03371220" lon="-1.06672525"><ele></ele><time>2014-7-3T20:27:35Z</time></trkpt>
<trkpt lat="49.03349594" lon="-1.06665174"><ele></ele><time>2014-7-3T20:27:38Z</time></trkpt>
<trkpt lat="49.03330710" lon="-1.06661176"><ele></ele><time>2014-7-3T20:27:41Z</time></trkpt>
<trkpt lat="49.03309328" lon="-1.06655192"><ele></ele><time>2014-7-3T20:27:44Z</time></trkpt>
<trkpt lat="49.03293796" lon="-1.06650456"><ele></ele><time>2014-7-3T20:27:47Z</time></trkpt>
<trkpt lat="49.03289094" lon="-1.06632183"><ele></ele><time>2014-7-3T20:27:50Z</time></trkpt>
<trkpt lat="49.03292027" lon="-1.06597105"><ele></ele><time>2014-7-3T20:27:53Z</time></trkpt>
<trkpt lat="49.03296604" lon="-1.06544274"><ele></ele><time>2014-7-3T20:27:56Z</time></trkpt>
<trkpt lat="49.03301097" lon="-1.06506933"><ele></ele><time>2014-7-3T20:27:59Z</time></trkpt>
<trkpt lat="49.03312462" lon="-1.06466088"><ele></ele><time>2014-7-3T20:28:2Z</time></trkpt>
<trkpt lat="49.03329570" lon="-1.06418118"><ele></ele><time>2014-7-3T20:28:5Z</time></trkpt>
<trkpt lat="49.03351539" lon="-1.06352647"><ele></ele><time>2014-7-3T20:28:8Z</time></trkpt>
<trkpt lat="49.03369158" lon="-1.06297997"><ele></ele><time>2014-7-3T20:28:11Z</time></trkpt>
<trkpt lat="49.03385444" lon="-1.06248418"><ele></ele><time>2014-7-3T20:28:14Z</time></trkpt>
<trkpt lat="49.03400489" lon="-1.06202074"><ele></ele><time>2014-7-3T20:28:17Z</time></trkpt>
<trkpt lat="49.03411872" lon="-1.06164247"><ele></ele><time>2014-7-3T20:28:20Z</time></trkpt>
<trkpt lat="49.03427462" lon="-1.06135665"><ele></ele><time>2014-7-3T20:28:23Z</time></trkpt>
<trkpt lat="49.03452608" lon="-1.06104467"><ele></ele><time>2014-7-3T20:28:26Z</time></trkpt>
<trkpt lat="49.03464795" lon="-1.06084183"><ele></ele><time>2014-7-3T20:28:29Z</time></trkpt>
<trkpt lat="49.03477100" lon="-1.06039004"><ele></ele><time>2014-7-3T20:28:32Z</time></trkpt>
<trkpt lat="49.03481953" lon="-1.06008285"><ele></ele><time>2014-7-3T20:28:35Z</time></trkpt>
<trkpt lat="49.03491332" lon="-1.05985645"><ele></ele><time>2014-7-3T20:28:38Z</time></trkpt>
<trkpt lat="49.03492698" lon="-1.05980784"><ele></ele><time>2014-7-3T20:28:41Z</time></trkpt>
<trkpt lat="49.03484174" lon="-1.05951916"><ele></ele><time>2014-7-3T20:28:44Z</time></trkpt>
<trkpt lat="49.03467427" lon="-1.05907819"><ele></ele><time>2014-7-3T20:28:47Z</time></trkpt>
<trkpt lat="49.03449180" lon="-1.05873814"><ele></ele><time>2014-7-3T20:28:50Z</time></trkpt>
<trkpt lat="49.03430739" lon="-1.05862096"><ele></ele><time>2014-7-3T20:28:53Z</time></trkpt>
<trkpt lat="49.03417488" lon="-1.05870335"><ele></ele><time>2014-7-3T20:28:56Z</time></trkpt>
<trkpt lat="49.03396290" lon="-1.05891793"><ele></ele><time>2014-7-3T20:28:59Z</time></trkpt>
<trkpt lat="49.03380440" lon="-1.05908272"><ele></ele><time>2014-7-3T20:29:2Z</time></trkpt>
<trkpt lat="49.03357984" lon="-1.05925120"><ele></ele><time>2014-7-3T20:29:5Z</time></trkpt>
<trkpt lat="49.03340793" lon="-1.05941179"><ele></ele><time>2014-7-3T20:29:8Z</time></trkpt>
<trkpt lat="49.03325572" lon="-1.05956082"><ele></ele><time>2014-7-3T20:29:11Z</time></trkpt>
<trkpt lat="49.03309386" lon="-1.05964028"><ele></ele><time>2014-7-3T20:29:14Z</time></trkpt>
<trkpt lat="49.03303905" lon="-1.05952855"><ele></ele><time>2014-7-3T20:29:17Z</time></trkpt>
<trkpt lat="49.03290343" lon="-1.05918892"><ele></ele><time>2014-7-3T20:29:20Z</time></trkpt>
<trkpt lat="49.03274668" lon="-1.05901030"><ele></ele><time>2014-7-3T20:29:23Z</time></trkpt>
<trkpt lat="49.03237428" lon="-1.05886445"><ele></ele><time>2014-7-3T20:29:26Z</time></trkpt>
<trkpt lat="49.03210547" lon="-1.05876412"><ele></ele><time>2014-7-3T20:29:29Z</time></trkpt>
<trkpt lat="49.03182903" lon="-1.05865030"><ele></ele><time>2014-7-3T20:29:32Z</time></trkpt>
<trkpt lat="49.03171747" lon="-1.05860797"><ele></ele><time>2014-7-3T20:29:35Z</time></trkpt>
<trkpt lat="49.03160457" lon="-1.05856296"><ele></ele><time>2014-7-3T20:29:38Z</time></trkpt>
<trkpt lat="49.03137834" lon="-1.05845835"><ele></ele><time>2014-7-3T20:29:41Z</time></trkpt>
<trkpt lat="49.03121992" lon="-1.05837856"><ele></ele><time>2014-7-3T20:29:44Z</time></trkpt>
<trkpt lat="49.03108992" lon="-1.05815518"><ele></ele><time>2014-7-3T20:29:47Z</time></trkpt>
<trkpt lat="49.03101842" lon="-1.05783449"><ele></ele><time>2014-7-3T20:29:50Z</time></trkpt>
<trkpt lat="49.03091080" lon="-1.05739284"><ele></ele><time>2014-7-3T20:29:53Z</time></trkpt>
<trkpt lat="49.03083838" lon="-1.05713368"><ele></ele><time>2014-7-3T20:29:56Z</time></trkpt>
<trkpt lat="49.03075959" lon="-1.05688306"><ele></ele><time>2014-7-3T20:29:59Z</time></trkpt>
<trkpt lat="49.03086964" lon="-1.05677493"><ele></ele><time>2014-7-3T20:30:2Z</time></trkpt>
<trkpt lat="49.03105178" lon="-1.05663688"><ele></ele><time>2014-7-3T20:30:5Z</time></trkpt>
<trkpt lat="49.03101909" lon="-1.05647637"><ele></ele><time>2014-7-3T20:30:8Z</time></trkpt>
<trkpt lat="49.03085967" lon="-1.05645315"><ele></ele><time>2014-7-3T20:30:11Z</time></trkpt>
<trkpt lat="49.03081600" lon="-1.05647570"><ele></ele><time>2014-7-3T20:30:14Z</time></trkpt>
<trkpt lat="49.03068507" lon="-1.05656127"><ele></ele><time>2014-7-3T20:30:17Z</time></trkpt>
<trkpt lat="49.03053680" lon="-1.05659723"><ele></ele><time>2014-7-3T20:30:20Z</time></trkpt>
<trkpt lat="49.03032306" lon="-1.05665859"><ele></ele><time>2014-7-3T20:30:23Z</time></trkpt>
<trkpt lat="49.03013765" lon="-1.05671466"><ele></ele><time>2014-7-3T20:30:26Z</time></trkpt>
<trkpt lat="49.02971252" lon="-1.05675733"><ele></ele><time>2014-7-3T20:30:29Z</time></trkpt>
<trkpt lat="49.02950130" lon="-1.05682388"><ele></ele><time>2014-7-3T20:30:32Z</time></trkpt>
<trkpt lat="49.02892973" lon="-1.05713485"><ele></ele><time>2014-7-3T20:30:35Z</time></trkpt>
<trkpt lat="49.02846177" lon="-1.05751908"><ele></ele><time>2014-7-3T20:30:38Z</time></trkpt>
<trkpt lat="49.02821233" lon="-1.05774312"><ele></ele><time>2014-7-3T20:30:41Z</time></trkpt>
<trkpt lat="49.02797202" lon="-1.05798704"><ele></ele><time>2014-7-3T20:30:44Z</time></trkpt>
<trkpt lat="49.02772735" lon="-1.05820639"><ele></ele><time>2014-7-3T20:30:47Z</time></trkpt>
<trkpt lat="49.02748369" lon="-1.05839859"><ele></ele><time>2014-7-3T20:30:50Z</time></trkpt>
<trkpt lat="49.02719954" lon="-1.05860596"><ele></ele><time>2014-7-3T20:30:53Z</time></trkpt>
<trkpt lat="49.02687332" lon="-1.05878952"><ele></ele><time>2014-7-3T20:30:56Z</time></trkpt>
<trkpt lat="49.02659906" lon="-1.05892816"><ele></ele><time>2014-7-3T20:30:59Z</time></trkpt>
<trkpt lat="49.02642916" lon="-1.05882213"><ele></ele><time>2014-7-3T20:31:2Z</time></trkpt>
<trkpt lat="49.02641525" lon="-1.05874199"><ele></ele><time>2014-7-3T20:31:5Z</time></trkpt>
<trkpt lat="49.02631039" lon="-1.05821234"><ele></ele><time>2014-7-3T20:31:8Z</time></trkpt>
<trkpt lat="49.02616865" lon="-1.05778352"><ele></ele><time>2014-7-3T20:31:11Z</time></trkpt>
<trkpt lat="49.02605524" lon="-1.05737633"><ele></ele><time>2014-7-3T20:31:14Z</time></trkpt>
<trkpt lat="49.02610520" lon="-1.05713334"><ele></ele><time>2014-7-3T20:31:17Z</time></trkpt>
<trkpt lat="49.02633687" lon="-1.05695204"><ele></ele><time>2014-7-3T20:31:20Z</time></trkpt>
<trkpt lat="49.02642648" lon="-1.05670343"><ele></ele><time>2014-7-3T20:31:23Z</time></trkpt>
<trkpt lat="49.02643628" lon="-1.05663386"><ele></ele><time>2014-7-3T20:31:26Z</time></trkpt>
<trkpt lat="49.02647627" lon="-1.05629314"><ele></ele><time>2014-7-3T20:31:29Z</time></trkpt>
<trkpt lat="49.02648523" lon="-1.05622323"><ele></ele><time>2014-7-3T20:31:32Z</time></trkpt>
<trkpt lat="49.02652614" lon="-1.05601846"><ele></ele><time>2014-7-3T20:31:35Z</time></trkpt>
<trkpt lat="49.02658213" lon="-1.05582677"><ele></ele><time>2014-7-3T20:31:38Z</time></trkpt>
<trkpt lat="49.02661172" lon="-1.05571076"><ele></ele><time>2014-7-3T20:31:41Z</time></trkpt>
<trkpt lat="49.02670844" lon="-1.05537239"><ele></ele><time>2014-7-3T20:31:44Z</time></trkpt>
<trkpt lat="49.02688480" lon="-1.05481298"><ele></ele><time>2014-7-3T20:31:47Z</time></trkpt>
<trkpt lat="49.02697423" lon="-1.05453612"><ele></ele><time>2014-7-3T20:31:50Z</time></trkpt>
<trkpt lat="49.02708957" lon="-1.05418048"><ele></ele><time>2014-7-3T20:31:53Z</time></trkpt>
<trkpt lat="49.02724673" lon="-1.05382919"><ele></ele><time>2014-7-3T20:31:56Z</time></trkpt>
<trkpt lat="49.02745485" lon="-1.05339694"><ele></ele><time>2014-7-3T20:31:59Z</time></trkpt>
<trkpt lat="49.02758678" lon="-1.05303182"><ele></ele><time>2014-7-3T20:32:2Z</time></trkpt>
<trkpt lat="49.02774344" lon="-1.05255347"><ele></ele><time>2014-7-3T20:32:5Z</time></trkpt>
<trkpt lat="49.02770396" lon="-1.05220612"><ele></ele><time>2014-7-3T20:32:8Z</time></trkpt>
<trkpt lat="49.02766356" lon="-1.05176465"><ele></ele><time>2014-7-3T20:32:11Z</time></trkpt>
<trkpt lat="49.02762626" lon="-1.05140179"><ele></ele><time>2014-7-3T20:32:14Z</time></trkpt>
<trkpt lat="49.02760455" lon="-1.05115469"><ele></ele><time>2014-7-3T20:32:17Z</time></trkpt>
<trkpt lat="49.02754496" lon="-1.05062932"><ele></ele><time>2014-7-3T20:32:20Z</time></trkpt>
<trkpt lat="49.02750657" lon="-1.05025574"><ele></ele><time>2014-7-3T20:32:23Z</time></trkpt>
<trkpt lat="49.02749752" lon="-1.04985743"><ele></ele><time>2014-7-3T20:32:26Z</time></trkpt>
<trkpt lat="49.02750028" lon="-1.04953900"><ele></ele><time>2014-7-3T20:32:29Z</time></trkpt>
<trkpt lat="49.02746935" lon="-1.04910775"><ele></ele><time>2014-7-3T20:32:32Z</time></trkpt>
<trkpt lat="49.02744597" lon="-1.04872218"><ele></ele><time>2014-7-3T20:32:35Z</time></trkpt>
<trkpt lat="49.02743314" lon="-1.04844483"><ele></ele><time>2014-7-3T20:32:38Z</time></trkpt>
<trkpt lat="49.02741328" lon="-1.04807125"><ele></ele><time>2014-7-3T20:32:41Z</time></trkpt>
<trkpt lat="49.02739165" lon="-1.04766305"><ele></ele><time>2014-7-3T20:32:44Z</time></trkpt>
<trkpt lat="49.02737196" lon="-1.04725049"><ele></ele><time>2014-7-3T20:32:47Z</time></trkpt>
<trkpt lat="49.02735679" lon="-1.04693458"><ele></ele><time>2014-7-3T20:32:50Z</time></trkpt>
<trkpt lat="49.02732409" lon="-1.04667532"><ele></ele><time>2014-7-3T20:32:53Z</time></trkpt>
<trkpt lat="49.02724899" lon="-1.04633016"><ele></ele><time>2014-7-3T20:32:56Z</time></trkpt>
<trkpt lat="49.02716350" lon="-1.04593084"><ele></ele><time>2014-7-3T20:32:59Z</time></trkpt>
<trkpt lat="49.02711027" lon="-1.04554829"><ele></ele><time>2014-7-3T20:33:2Z</time></trkpt>
<trkpt lat="49.02712737" lon="-1.04527957"><ele></ele><time>2014-7-3T20:33:5Z</time></trkpt>
<trkpt lat="49.02717808" lon="-1.04494387"><ele></ele><time>2014-7-3T20:33:8Z</time></trkpt>
<trkpt lat="49.02715612" lon="-1.04465948"><ele></ele><time>2014-7-3T20:33:11Z</time></trkpt>
<trkpt lat="49.02707599" lon="-1.04433250"><ele></ele><time>2014-7-3T20:33:14Z</time></trkpt>
<trkpt lat="49.02703433" lon="-1.04404240"><ele></ele><time>2014-7-3T20:33:17Z</time></trkpt>
<trkpt lat="49.02698429" lon="-1.04359229"><ele></ele><time>2014-7-3T20:33:20Z</time></trkpt>
<trkpt lat="49.02693308" lon="-1.04320882"><ele></ele><time>2014-7-3T20:33:23Z</time></trkpt>
<trkpt lat="49.02692327" lon="-1.04291143"><ele></ele><time>2014-7-3T20:33:26Z</time></trkpt>
<trkpt lat="49.02695068" lon="-1.04256098"><ele></ele><time>2014-7-3T20:33:29Z</time></trkpt>
<trkpt lat="49.02694213" lon="-1.04225035"><ele></ele><time>2014-7-3T20:33:32Z</time></trkpt>
<trkpt lat="49.02690114" lon="-1.04185816"><ele></ele><time>2014-7-3T20:33:35Z</time></trkpt>
<trkpt lat="49.02682789" lon="-1.04143202"><ele></ele><time>2014-7-3T20:33:38Z</time></trkpt>
<trkpt lat="49.02671222" lon="-1.04107504"><ele></ele><time>2014-7-3T20:33:41Z</time></trkpt>
<trkpt lat="49.02657383" lon="-1.04068494"><ele></ele><time>2014-7-3T20:33:44Z</time></trkpt>
<trkpt lat="49.02648373" lon="-1.04032854"><ele></ele><time>2014-7-3T20:33:47Z</time></trkpt>
<trkpt lat="49.02646428" lon="-1.04006703"><ele></ele><time>2014-7-3T20:33:50Z</time></trkpt>
<trkpt lat="49.02637065" lon="-1.03969328"><ele></ele><time>2014-7-3T20:33:53Z</time></trkpt>
<trkpt lat="49.02621266" lon="-1.03955548"><ele></ele><time>2014-7-3T20:33:56Z</time></trkpt>
<trkpt lat="49.02615809" lon="-1.03954073"><ele></ele><time>2014-7-3T20:33:59Z</time></trkpt>
<trkpt lat="49.02592742" lon="-1.03937829"><ele></ele><time>2014-7-3T20:34:2Z</time></trkpt>
<trkpt lat="49.02591309" lon="-1.03932858"><ele></ele><time>2014-7-3T20:34:5Z</time></trkpt>
<trkpt lat="49.02569935" lon="-1.03889415"><ele></ele><time>2014-7-3T20:34:8Z</time></trkpt>
<trkpt lat="49.02557169" lon="-1.03871436"><ele></ele><time>2014-7-3T20:34:11Z</time></trkpt>
<trkpt lat="49.02544487" lon="-1.03842326"><ele></ele><time>2014-7-3T20:34:14Z</time></trkpt>
<trkpt lat="49.02532493" lon="-1.03812402"><ele></ele><time>2014-7-3T20:34:17Z</time></trkpt>
<trkpt lat="49.02527866" lon="-1.03780274"><ele></ele><time>2014-7-3T20:34:20Z</time></trkpt>
<trkpt lat="49.02526969" lon="-1.03774583"><ele></ele><time>2014-7-3T20:34:23Z</time></trkpt>
<trkpt lat="49.02516039" lon="-1.03768774"><ele></ele><time>2014-7-3T20:34:26Z</time></trkpt>
<trkpt lat="49.02504506" lon="-1.03777223"><ele></ele><time>2014-7-3T20:34:29Z</time></trkpt>
<trkpt lat="49.02499963" lon="-1.03774273"><ele></ele><time>2014-7-3T20:34:32Z</time></trkpt>
<trkpt lat="49.02500608" lon="-1.03770342"><ele></ele><time>2014-7-3T20:34:35Z</time></trkpt>
<trkpt lat="49.02499585" lon="-1.03769076"><ele></ele><time>2014-7-3T20:34:38Z</time></trkpt>
<trkpt lat="49.02498152" lon="-1.03767433"><ele></ele><time>2014-7-3T20:34:41Z</time></trkpt>
<trkpt lat="49.02493467" lon="-1.03775086"><ele></ele><time>2014-7-3T20:34:44Z</time></trkpt>
<trkpt lat="49.02495269" lon="-1.03777626"><ele></ele><time>2014-7-3T20:34:47Z</time></trkpt>
<trkpt lat="49.02497415" lon="-1.03779185"><ele></ele><time>2014-7-3T20:34:50Z</time></trkpt>
<trkpt lat="49.02508940" lon="-1.03785027"><ele></ele><time>2014-7-3T20:34:53Z</time></trkpt>
<trkpt lat="49.02512804" lon="-1.03772010"><ele></ele><time>2014-7-3T20:34:56Z</time></trkpt>
<trkpt lat="49.02513139" lon="-1.03754089"><ele></ele><time>2014-7-3T20:34:59Z</time></trkpt>
<trkpt lat="49.02508428" lon="-1.03748079"><ele></ele><time>2014-7-3T20:35:2Z</time></trkpt>
<trkpt lat="49.02494087" lon="-1.03731215"><ele></ele><time>2014-7-3T20:35:5Z</time></trkpt>
<trkpt lat="49.02474808" lon="-1.03711308"><ele></ele><time>2014-7-3T20:35:8Z</time></trkpt>
<trkpt lat="49.02451373" lon="-1.03692792"><ele></ele><time>2014-7-3T20:35:11Z</time></trkpt>
<trkpt lat="49.02431566" lon="-1.03683069"><ele></ele><time>2014-7-3T20:35:14Z</time></trkpt>
<trkpt lat="49.02400092" lon="-1.03663229"><ele></ele><time>2014-7-3T20:35:17Z</time></trkpt>
<trkpt lat="49.02381769" lon="-1.03646583"><ele></ele><time>2014-7-3T20:35:20Z</time></trkpt>
<trkpt lat="49.02364134" lon="-1.03638838"><ele></ele><time>2014-7-3T20:35:23Z</time></trkpt>
<trkpt lat="49.02356573" lon="-1.03630456"><ele></ele><time>2014-7-3T20:35:26Z</time></trkpt>
<trkpt lat="49.02338024" lon="-1.03619149"><ele></ele><time>2014-7-3T20:35:29Z</time></trkpt>
<trkpt lat="49.02320498" lon="-1.03613500"><ele></ele><time>2014-7-3T20:35:32Z</time></trkpt>
<trkpt lat="49.02294262" lon="-1.03600139"><ele></ele><time>2014-7-3T20:35:35Z</time></trkpt>
<trkpt lat="49.02258497" lon="-1.03579804"><ele></ele><time>2014-7-3T20:35:38Z</time></trkpt>
<trkpt lat="49.02223259" lon="-1.03560736"><ele></ele><time>2014-7-3T20:35:41Z</time></trkpt>
<trkpt lat="49.02218775" lon="-1.03558020"><ele></ele><time>2014-7-3T20:35:44Z</time></trkpt>
<trkpt lat="49.02189304" lon="-1.03546285"><ele></ele><time>2014-7-3T20:35:47Z</time></trkpt>
<trkpt lat="49.02146163" lon="-1.03547794"><ele></ele><time>2014-7-3T20:35:50Z</time></trkpt>
<trkpt lat="49.02123976" lon="-1.03550275"><ele></ele><time>2014-7-3T20:35:53Z</time></trkpt>
<trkpt lat="49.02107773" lon="-1.03551633"><ele></ele><time>2014-7-3T20:35:56Z</time></trkpt>
<trkpt lat="49.02091546" lon="-1.03553913"><ele></ele><time>2014-7-3T20:35:59Z</time></trkpt>
<trkpt lat="49.02087372" lon="-1.03554307"><ele></ele><time>2014-7-3T20:36:2Z</time></trkpt>
<trkpt lat="49.02070977" lon="-1.03553167"><ele></ele><time>2014-7-3T20:36:5Z</time></trkpt>
<trkpt lat="49.02038346" lon="-1.03546268"><ele></ele><time>2014-7-3T20:36:8Z</time></trkpt>
<trkpt lat="49.02022295" lon="-1.03540225"><ele></ele><time>2014-7-3T20:36:11Z</time></trkpt>
<trkpt lat="49.01989899" lon="-1.03524023"><ele></ele><time>2014-7-3T20:36:14Z</time></trkpt>
<trkpt lat="49.01934645" lon="-1.03494435"><ele></ele><time>2014-7-3T20:36:17Z</time></trkpt>
<trkpt lat="49.01861228" lon="-1.03462416"><ele></ele><time>2014-7-3T20:36:20Z</time></trkpt>
<trkpt lat="49.01815748" lon="-1.03453766"><ele></ele><time>2014-7-3T20:36:23Z</time></trkpt>
<trkpt lat="49.01770804" lon="-1.03462516"><ele></ele><time>2014-7-3T20:36:26Z</time></trkpt>
<trkpt lat="49.01717872" lon="-1.03482356"><ele></ele><time>2014-7-3T20:36:29Z</time></trkpt>
<trkpt lat="49.01656207" lon="-1.03503244"><ele></ele><time>2014-7-3T20:36:32Z</time></trkpt>
<trkpt lat="49.01597575" lon="-1.03520335"><ele></ele><time>2014-7-3T20:36:35Z</time></trkpt>
<trkpt lat="49.01536748" lon="-1.03538842"><ele></ele><time>2014-7-3T20:36:38Z</time></trkpt>
<trkpt lat="49.01468452" lon="-1.03563803"><ele></ele><time>2014-7-3T20:36:41Z</time></trkpt>
<trkpt lat="49.01423265" lon="-1.03587407"><ele></ele><time>2014-7-3T20:36:44Z</time></trkpt>
<trkpt lat="49.01355925" lon="-1.03621806"><ele></ele><time>2014-7-3T20:36:47Z</time></trkpt>
<trkpt lat="49.01317075" lon="-1.03630683"><ele></ele><time>2014-7-3T20:36:50Z</time></trkpt>
<trkpt lat="49.01295575" lon="-1.03634094"><ele></ele><time>2014-7-3T20:36:53Z</time></trkpt>
<trkpt lat="49.01291996" lon="-1.03652434"><ele></ele><time>2014-7-3T20:36:56Z</time></trkpt>
<trkpt lat="49.01292197" lon="-1.03667152"><ele></ele><time>2014-7-3T20:36:59Z</time></trkpt>
<trkpt lat="49.01292834" lon="-1.03723688"><ele></ele><time>2014-7-3T20:37:2Z</time></trkpt>
<trkpt lat="49.01292876" lon="-1.03734937"><ele></ele><time>2014-7-3T20:37:5Z</time></trkpt>
<trkpt lat="49.01291745" lon="-1.03754500"><ele></ele><time>2014-7-3T20:37:8Z</time></trkpt>
<trkpt lat="49.01284327" lon="-1.03782496"><ele></ele><time>2014-7-3T20:37:11Z</time></trkpt>
<trkpt lat="49.01261084" lon="-1.03830482"><ele></ele><time>2014-7-3T20:37:14Z</time></trkpt>
<trkpt lat="49.01219744" lon="-1.03884445"><ele></ele><time>2014-7-3T20:37:17Z</time></trkpt>
<trkpt lat="49.01211530" lon="-1.03894017"><ele></ele><time>2014-7-3T20:37:20Z</time></trkpt>
<trkpt lat="49.01201623" lon="-1.03925826"><ele></ele><time>2014-7-3T20:37:23Z</time></trkpt>
<trkpt lat="49.01199879" lon="-1.03948482"><ele></ele><time>2014-7-3T20:37:26Z</time></trkpt>
<trkpt lat="49.01193165" lon="-1.03977006"><ele></ele><time>2014-7-3T20:37:29Z</time></trkpt>
<trkpt lat="49.01179989" lon="-1.03997877"><ele></ele><time>2014-7-3T20:37:32Z</time></trkpt>
<trkpt lat="49.01175446" lon="-1.04003166"><ele></ele><time>2014-7-3T20:37:35Z</time></trkpt>
<trkpt lat="49.01171892" lon="-1.04010475"><ele></ele><time>2014-7-3T20:37:38Z</time></trkpt>
<trkpt lat="49.01169486" lon="-1.04016468"><ele></ele><time>2014-7-3T20:37:41Z</time></trkpt>
<trkpt lat="49.01168833" lon="-1.04019016"><ele></ele><time>2014-7-3T20:37:44Z</time></trkpt>
<trkpt lat="49.01160903" lon="-1.04034724"><ele></ele><time>2014-7-3T20:37:47Z</time></trkpt>
<trkpt lat="49.01153410" lon="-1.04052016"><ele></ele><time>2014-7-3T20:37:50Z</time></trkpt>
<trkpt lat="49.01147517" lon="-1.04069726"><ele></ele><time>2014-7-3T20:37:53Z</time></trkpt>
<trkpt lat="49.01140443" lon="-1.04088795"><ele></ele><time>2014-7-3T20:37:56Z</time></trkpt>
<trkpt lat="49.01132975" lon="-1.04108627"><ele></ele><time>2014-7-3T20:37:59Z</time></trkpt>
<trkpt lat="49.01120385" lon="-1.04135374"><ele></ele><time>2014-7-3T20:38:2Z</time></trkpt>
<trkpt lat="49.01105817" lon="-1.04166487"><ele></ele><time>2014-7-3T20:38:5Z</time></trkpt>
<trkpt lat="49.01102616" lon="-1.04173604"><ele></ele><time>2014-7-3T20:38:8Z</time></trkpt>
<trkpt lat="49.01098165" lon="-1.04182304"><ele></ele><time>2014-7-3T20:38:11Z</time></trkpt>
<trkpt lat="49.01088299" lon="-1.04207374"><ele></ele><time>2014-7-3T20:38:14Z</time></trkpt>
<trkpt lat="49.01077160" lon="-1.04238655"><ele></ele><time>2014-7-3T20:38:17Z</time></trkpt>
<trkpt lat="49.01074343" lon="-1.04265192"><ele></ele><time>2014-7-3T20:38:20Z</time></trkpt>
<trkpt lat="49.01073715" lon="-1.04275368"><ele></ele><time>2014-7-3T20:38:23Z</time></trkpt>
<trkpt lat="49.01056867" lon="-1.04293155"><ele></ele><time>2014-7-3T20:38:26Z</time></trkpt>
<trkpt lat="49.01031395" lon="-1.04304479"><ele></ele><time>2014-7-3T20:38:29Z</time></trkpt>
<trkpt lat="49.01006475" lon="-1.04311243"><ele></ele><time>2014-7-3T20:38:32Z</time></trkpt>
<trkpt lat="49.00982830" lon="-1.04316490"><ele></ele><time>2014-7-3T20:38:35Z</time></trkpt>
<trkpt lat="49.00958564" lon="-1.04319826"><ele></ele><time>2014-7-3T20:38:38Z</time></trkpt>
<trkpt lat="49.00930443" lon="-1.04324260"><ele></ele><time>2014-7-3T20:38:41Z</time></trkpt>
<trkpt lat="49.00929278" lon="-1.04340412"><ele></ele><time>2014-7-3T20:38:44Z</time></trkpt>
<trkpt lat="49.00937174" lon="-1.04380125"><ele></ele><time>2014-7-3T20:38:47Z</time></trkpt>
<trkpt lat="49.00947006" lon="-1.04426837"><ele></ele><time>2014-7-3T20:38:50Z</time></trkpt>
<trkpt lat="49.00956435" lon="-1.04472569"><ele></ele><time>2014-7-3T20:38:53Z</time></trkpt>
<trkpt lat="49.00964147" lon="-1.04510070"><ele></ele><time>2014-7-3T20:38:56Z</time></trkpt>
<trkpt lat="49.00982218" lon="-1.04549213"><ele></ele><time>2014-7-3T20:38:59Z</time></trkpt>
<trkpt lat="49.01008965" lon="-1.04583923"><ele></ele><time>2014-7-3T20:39:2Z</time></trkpt>
<trkpt lat="49.01018914" lon="-1.04617090"><ele></ele><time>2014-7-3T20:39:5Z</time></trkpt>
<trkpt lat="49.01018453" lon="-1.04643208"><ele></ele><time>2014-7-3T20:39:8Z</time></trkpt>
<trkpt lat="49.01011974" lon="-1.04643644"><ele></ele><time>2014-7-3T20:39:11Z</time></trkpt>
<trkpt lat="49.01007682" lon="-1.04623728"><ele></ele><time>2014-7-3T20:39:14Z</time></trkpt>
<trkpt lat="49.00995092" lon="-1.04603469"><ele></ele><time>2014-7-3T20:39:17Z</time></trkpt>
<trkpt lat="49.00982344" lon="-1.04605137"><ele></ele><time>2014-7-3T20:39:20Z</time></trkpt>
<trkpt lat="49.00960316" lon="-1.04616185"><ele></ele><time>2014-7-3T20:39:23Z</time></trkpt>
<trkpt lat="49.00928875" lon="-1.04631389"><ele></ele><time>2014-7-3T20:39:26Z</time></trkpt>
<trkpt lat="49.00900947" lon="-1.04643317"><ele></ele><time>2014-7-3T20:39:29Z</time></trkpt>
<trkpt lat="49.00894895" lon="-1.04646569"><ele></ele><time>2014-7-3T20:39:32Z</time></trkpt>
<trkpt lat="49.00890755" lon="-1.04662679"><ele></ele><time>2014-7-3T20:39:35Z</time></trkpt>
<trkpt lat="49.00893378" lon="-1.04676568"><ele></ele><time>2014-7-3T20:39:38Z</time></trkpt>
<trkpt lat="49.00899908" lon="-1.04711303"><ele></ele><time>2014-7-3T20:39:41Z</time></trkpt>
<trkpt lat="49.00905079" lon="-1.04734847"><ele></ele><time>2014-7-3T20:39:44Z</time></trkpt>
<trkpt lat="49.00905264" lon="-1.04760295"><ele></ele><time>2014-7-3T20:39:47Z</time></trkpt>
<trkpt lat="49.00904777" lon="-1.04796764"><ele></ele><time>2014-7-3T20:39:50Z</time></trkpt>
<trkpt lat="49.00907812" lon="-1.04836503"><ele></ele><time>2014-7-3T20:39:53Z</time></trkpt>
<trkpt lat="49.00910100" lon="-1.04876124"><ele></ele><time>2014-7-3T20:39:56Z</time></trkpt>
<trkpt lat="49.00911852" lon="-1.04911119"><ele></ele><time>2014-7-3T20:39:59Z</time></trkpt>
<trkpt lat="49.00914257" lon="-1.04950313"><ele></ele><time>2014-7-3T20:40:2Z</time></trkpt>
<trkpt lat="49.00910142" lon="-1.04987629"><ele></ele><time>2014-7-3T20:40:5Z</time></trkpt>
<trkpt lat="49.00899589" lon="-1.05032288"><ele></ele><time>2014-7-3T20:40:8Z</time></trkpt>
<trkpt lat="49.00888827" lon="-1.05079369"><ele></ele><time>2014-7-3T20:40:11Z</time></trkpt>
<trkpt lat="49.00875625" lon="-1.05119962"><ele></ele><time>2014-7-3T20:40:14Z</time></trkpt>
<trkpt lat="49.00873848" lon="-1.05124690"><ele></ele><time>2014-7-3T20:40:17Z</time></trkpt>
<trkpt lat="49.00875256" lon="-1.05145267"><ele></ele><time>2014-7-3T20:40:20Z</time></trkpt>
<trkpt lat="49.00894149" lon="-1.05155527"><ele></ele><time>2014-7-3T20:40:23Z</time></trkpt>
<trkpt lat="49.00913285" lon="-1.05159684"><ele></ele><time>2014-7-3T20:40:26Z</time></trkpt>
<trkpt lat="49.00930527" lon="-1.05182458"><ele></ele><time>2014-7-3T20:40:29Z</time></trkpt>
<trkpt lat="49.00935757" lon="-1.05213814"><ele></ele><time>2014-7-3T20:40:32Z</time></trkpt>
<trkpt lat="49.00935598" lon="-1.05237410"><ele></ele><time>2014-7-3T20:40:35Z</time></trkpt>
<trkpt lat="49.00928272" lon="-1.05276109"><ele></ele><time>2014-7-3T20:40:38Z</time></trkpt>
<trkpt lat="49.00926302" lon="-1.05300735"><ele></ele><time>2014-7-3T20:40:41Z</time></trkpt>
<trkpt lat="49.00939428" lon="-1.05316702"><ele></ele><time>2014-7-3T20:40:44Z</time></trkpt>
<trkpt lat="49.00957936" lon="-1.05326559"><ele></ele><time>2014-7-3T20:40:47Z</time></trkpt>
<trkpt lat="49.00973526" lon="-1.05349987"><ele></ele><time>2014-7-3T20:40:50Z</time></trkpt>
<trkpt lat="49.00983735" lon="-1.05370355"><ele></ele><time>2014-7-3T20:40:53Z</time></trkpt>
<trkpt lat="49.01009669" lon="-1.05433093"><ele></ele><time>2014-7-3T20:40:56Z</time></trkpt>
<trkpt lat="49.01012695" lon="-1.05443512"><ele></ele><time>2014-7-3T20:40:59Z</time></trkpt>
<trkpt lat="49.01023700" lon="-1.05482664"><ele></ele><time>2014-7-3T20:41:2Z</time></trkpt>
<trkpt lat="49.01042442" lon="-1.05491758"><ele></ele><time>2014-7-3T20:41:5Z</time></trkpt>
<trkpt lat="49.01051016" lon="-1.05489705"><ele></ele><time>2014-7-3T20:41:8Z</time></trkpt>
<trkpt lat="49.01084494" lon="-1.05480024"><ele></ele><time>2014-7-3T20:41:11Z</time></trkpt>
<trkpt lat="49.01094980" lon="-1.05486570"><ele></ele><time>2014-7-3T20:41:14Z</time></trkpt>
<trkpt lat="49.01095038" lon="-1.05491884"><ele></ele><time>2014-7-3T20:41:17Z</time></trkpt>
<trkpt lat="49.01090973" lon="-1.05536216"><ele></ele><time>2014-7-3T20:41:20Z</time></trkpt>
<trkpt lat="49.01080999" lon="-1.05574412"><ele></ele><time>2014-7-3T20:41:23Z</time></trkpt>
<trkpt lat="49.01057965" lon="-1.05609465"><ele></ele><time>2014-7-3T20:41:26Z</time></trkpt>
<trkpt lat="49.01049759" lon="-1.05614553"><ele></ele><time>2014-7-3T20:41:29Z</time></trkpt>
<trkpt lat="49.01008118" lon="-1.05634603"><ele></ele><time>2014-7-3T20:41:32Z</time></trkpt>
<trkpt lat="49.00977340" lon="-1.05653579"><ele></ele><time>2014-7-3T20:41:35Z</time></trkpt>
<trkpt lat="49.00938632" lon="-1.05666010"><ele></ele><time>2014-7-3T20:41:38Z</time></trkpt>
<trkpt lat="49.00922153" lon="-1.05670913"><ele></ele><time>2014-7-3T20:41:41Z</time></trkpt>
<trkpt lat="49.00889246" lon="-1.05701893"><ele></ele><time>2014-7-3T20:41:44Z</time></trkpt>
<trkpt lat="49.00863572" lon="-1.05711683"><ele></ele><time>2014-7-3T20:41:47Z</time></trkpt>
<trkpt lat="49.00826893" lon="-1.05727784"><ele></ele><time>2014-7-3T20:41:50Z</time></trkpt>
<trkpt lat="49.00769242" lon="-1.05746116"><ele></ele><time>2014-7-3T20:41:53Z</time></trkpt>
<trkpt lat="49.00736368" lon="-1.05753902"><ele></ele><time>2014-7-3T20:41:56Z</time></trkpt>
<trkpt lat="49.00730166" lon="-1.05755160"><ele></ele><time>2014-7-3T20:41:59Z</time></trkpt>
<trkpt lat="49.00719185" lon="-1.05777648"><ele></ele><time>2014-7-3T20:42:2Z</time></trkpt>
<trkpt lat="49.00724810" lon="-1.05792484"><ele></ele><time>2014-7-3T20:42:5Z</time></trkpt>
<trkpt lat="49.00737693" lon="-1.05825157"><ele></ele><time>2014-7-3T20:42:8Z</time></trkpt>
<trkpt lat="49.00740366" lon="-1.05832256"><ele></ele><time>2014-7-3T20:42:11Z</time></trkpt>
<trkpt lat="49.00746452" lon="-1.05860579"><ele></ele><time>2014-7-3T20:42:14Z</time></trkpt>
<trkpt lat="49.00736393" lon="-1.05873596"><ele></ele><time>2014-7-3T20:42:17Z</time></trkpt>
<trkpt lat="49.00691299" lon="-1.05914014"><ele></ele><time>2014-7-3T20:42:20Z</time></trkpt>
<trkpt lat="49.00642055" lon="-1.05956459"><ele></ele><time>2014-7-3T20:42:23Z</time></trkpt>
<trkpt lat="49.00616784" lon="-1.05979912"><ele></ele><time>2014-7-3T20:42:26Z</time></trkpt>
<trkpt lat="49.00597908" lon="-1.06006617"><ele></ele><time>2014-7-3T20:42:29Z</time></trkpt>
<trkpt lat="49.00579384" lon="-1.06031746"><ele></ele><time>2014-7-3T20:42:32Z</time></trkpt>
<trkpt lat="49.00564673" lon="-1.06050597"><ele></ele><time>2014-7-3T20:42:35Z</time></trkpt>
<trkpt lat="49.00533468" lon="-1.06092992"><ele></ele><time>2014-7-3T20:42:38Z</time></trkpt>
<trkpt lat="49.00506562" lon="-1.06123050"><ele></ele><time>2014-7-3T20:42:41Z</time></trkpt>
<trkpt lat="49.00495263" lon="-1.06131666"><ele></ele><time>2014-7-3T20:42:44Z</time></trkpt>
<trkpt lat="49.00477460" lon="-1.06142219"><ele></ele><time>2014-7-3T20:42:47Z</time></trkpt>
<trkpt lat="49.00470586" lon="-1.06152152"><ele></ele><time>2014-7-3T20:42:50Z</time></trkpt>
<trkpt lat="49.00470746" lon="-1.06155437"><ele></ele><time>2014-7-3T20:42:53Z</time></trkpt>
<trkpt lat="49.00471659" lon="-1.06174967"><ele></ele><time>2014-7-3T20:42:56Z</time></trkpt>
<trkpt lat="49.00472305" lon="-1.06191547"><ele></ele><time>2014-7-3T20:42:59Z</time></trkpt>
<trkpt lat="49.00473369" lon="-1.06206953"><ele></ele><time>2014-7-3T20:43:2Z</time></trkpt>
<trkpt lat="49.00473378" lon="-1.06214186"><ele></ele><time>2014-7-3T20:43:5Z</time></trkpt>
<trkpt lat="49.00474383" lon="-1.06222987"><ele></ele><time>2014-7-3T20:43:8Z</time></trkpt>
<trkpt lat="49.00474794" lon="-1.06241520"><ele></ele><time>2014-7-3T20:43:11Z</time></trkpt>
<trkpt lat="49.00474828" lon="-1.06255853"><ele></ele><time>2014-7-3T20:43:14Z</time></trkpt>
<trkpt lat="49.00475146" lon="-1.06267948"><ele></ele><time>2014-7-3T20:43:17Z</time></trkpt>
<trkpt lat="49.00477108" lon="-1.06280370"><ele></ele><time>2014-7-3T20:43:20Z</time></trkpt>
<trkpt lat="49.00477644" lon="-1.06284502"><ele></ele><time>2014-7-3T20:43:23Z</time></trkpt>
<trkpt lat="49.00478449" lon="-1.06303596"><ele></ele><time>2014-7-3T20:43:26Z</time></trkpt>
<trkpt lat="49.00476563" lon="-1.06319857"><ele></ele><time>2014-7-3T20:43:29Z</time></trkpt>
<trkpt lat="49.00475163" lon="-1.06337828"><ele></ele><time>2014-7-3T20:43:32Z</time></trkpt>
<trkpt lat="49.00473822" lon="-1.06356486"><ele></ele><time>2014-7-3T20:43:35Z</time></trkpt>
<trkpt lat="49.00471794" lon="-1.06378932"><ele></ele><time>2014-7-3T20:43:38Z</time></trkpt>
<trkpt lat="49.00470503" lon="-1.06406232"><ele></ele><time>2014-7-3T20:43:41Z</time></trkpt>
<trkpt lat="49.00469866" lon="-1.06423382"><ele></ele><time>2014-7-3T20:43:44Z</time></trkpt>
<trkpt lat="49.00469648" lon="-1.06445736"><ele></ele><time>2014-7-3T20:43:47Z</time></trkpt>
<trkpt lat="49.00470645" lon="-1.06474914"><ele></ele><time>2014-7-3T20:43:50Z</time></trkpt>
<trkpt lat="49.00471969" lon="-1.06503580"><ele></ele><time>2014-7-3T20:43:53Z</time></trkpt>
<trkpt lat="49.00472682" lon="-1.06528952"><ele></ele><time>2014-7-3T20:43:56Z</time></trkpt>
<trkpt lat="49.00472866" lon="-1.06554718"><ele></ele><time>2014-7-3T20:43:59Z</time></trkpt>
<trkpt lat="49.00475892" lon="-1.06575228"><ele></ele><time>2014-7-3T20:44:2Z</time></trkpt>
<trkpt lat="49.00477678" lon="-1.06606007"><ele></ele><time>2014-7-3T20:44:5Z</time></trkpt>
<trkpt lat="49.00479346" lon="-1.06636215"><ele></ele><time>2014-7-3T20:44:8Z</time></trkpt>
<trkpt lat="49.00480184" lon="-1.06669759"><ele></ele><time>2014-7-3T20:44:11Z</time></trkpt>
<trkpt lat="49.00483327" lon="-1.06698845"><ele></ele><time>2014-7-3T20:44:14Z</time></trkpt>
<trkpt lat="49.00483713" lon="-1.06732808"><ele></ele><time>2014-7-3T20:44:17Z</time></trkpt>
<trkpt lat="49.00481843" lon="-1.06757677"><ele></ele><time>2014-7-3T20:44:20Z</time></trkpt>
<trkpt lat="49.00480913" lon="-1.06784776"><ele></ele><time>2014-7-3T20:44:23Z</time></trkpt>
<trkpt lat="49.00477946" lon="-1.06817549"><ele></ele><time>2014-7-3T20:44:26Z</time></trkpt>
<trkpt lat="49.00470788" lon="-1.06845008"><ele></ele><time>2014-7-3T20:44:29Z</time></trkpt>
<trkpt lat="49.00464049" lon="-1.06866365"><ele></ele><time>2014-7-3T20:44:32Z</time></trkpt>
<trkpt lat="49.00456119" lon="-1.06891654"><ele></ele><time>2014-7-3T20:44:35Z</time></trkpt>
<trkpt lat="49.00443454" lon="-1.06921828"><ele></ele><time>2014-7-3T20:44:38Z</time></trkpt>
<trkpt lat="49.00433228" lon="-1.06941853"><ele></ele><time>2014-7-3T20:44:41Z</time></trkpt>
<trkpt lat="49.00419482" lon="-1.06966018"><ele></ele><time>2014-7-3T20:44:44Z</time></trkpt>
<trkpt lat="49.00404110" lon="-1.06990879"><ele></ele><time>2014-7-3T20:44:47Z</time></trkpt>
<trkpt lat="49.00388930" lon="-1.07013568"><ele></ele><time>2014-7-3T20:44:50Z</time></trkpt>
<trkpt lat="49.00372384" lon="-1.07042109"><ele></ele><time>2014-7-3T20:44:53Z</time></trkpt>
<trkpt lat="49.00361555" lon="-1.07065176"><ele></ele><time>2014-7-3T20:44:56Z</time></trkpt>
<trkpt lat="49.00350834" lon="-1.07093649"><ele></ele><time>2014-7-3T20:44:59Z</time></trkpt>
<trkpt lat="49.00340600" lon="-1.07125609"><ele></ele><time>2014-7-3T20:45:2Z</time></trkpt>
<trkpt lat="49.00324079" lon="-1.07167602"><ele></ele><time>2014-7-3T20:45:5Z</time></trkpt>
<trkpt lat="49.00306704" lon="-1.07209235"><ele></ele><time>2014-7-3T20:45:8Z</time></trkpt>
<trkpt lat="49.00284382" lon="-1.07248974"><ele></ele><time>2014-7-3T20:45:11Z</time></trkpt>
<trkpt lat="49.00262807" lon="-1.07283038"><ele></ele><time>2014-7-3T20:45:14Z</time></trkpt>
<trkpt lat="49.00244124" lon="-1.07318779"><ele></ele><time>2014-7-3T20:45:17Z</time></trkpt>
<trkpt lat="49.00215249" lon="-1.07374460"><ele></ele><time>2014-7-3T20:45:20Z</time></trkpt>
<trkpt lat="49.00201762" lon="-1.07400578"><ele></ele><time>2014-7-3T20:45:23Z</time></trkpt>
<trkpt lat="49.00181855" lon="-1.07447692"><ele></ele><time>2014-7-3T20:45:26Z</time></trkpt>
<trkpt lat="49.00172073" lon="-1.07481136"><ele></ele><time>2014-7-3T20:45:29Z</time></trkpt>
<trkpt lat="49.00167639" lon="-1.07535929"><ele></ele><time>2014-7-3T20:45:32Z</time></trkpt>
<trkpt lat="49.00161177" lon="-1.07601458"><ele></ele><time>2014-7-3T20:45:35Z</time></trkpt>
<trkpt lat="49.00160523" lon="-1.07607929"><ele></ele><time>2014-7-3T20:45:38Z</time></trkpt>
<trkpt lat="49.00143424" lon="-1.07683475"><ele></ele><time>2014-7-3T20:45:41Z</time></trkpt>
<trkpt lat="49.00126157" lon="-1.07734462"><ele></ele><time>2014-7-3T20:45:44Z</time></trkpt>
<trkpt lat="49.00100173" lon="-1.07782306"><ele></ele><time>2014-7-3T20:45:47Z</time></trkpt>
<trkpt lat="49.00061717" lon="-1.07841575"><ele></ele><time>2014-7-3T20:45:50Z</time></trkpt>
<trkpt lat="49.00043009" lon="-1.07889536"><ele></ele><time>2014-7-3T20:45:53Z</time></trkpt>
<trkpt lat="49.00022389" lon="-1.07971570"><ele></ele><time>2014-7-3T20:45:56Z</time></trkpt>
<trkpt lat="49.00008484" lon="-1.08050368"><ele></ele><time>2014-7-3T20:45:59Z</time></trkpt>
<trkpt lat="48.99998124" lon="-1.08139576"><ele></ele><time>2014-7-3T20:46:2Z</time></trkpt>
<trkpt lat="48.99989465" lon="-1.08241685"><ele></ele><time>2014-7-3T20:46:5Z</time></trkpt>
<trkpt lat="48.99987806" lon="-1.08291842"><ele></ele><time>2014-7-3T20:46:8Z</time></trkpt>
<trkpt lat="48.99988594" lon="-1.08372836"><ele></ele><time>2014-7-3T20:46:11Z</time></trkpt>
<trkpt lat="48.99986163" lon="-1.08486109"><ele></ele><time>2014-7-3T20:46:14Z</time></trkpt>
<trkpt lat="48.99975618" lon="-1.08539502"><ele></ele><time>2014-7-3T20:46:17Z</time></trkpt>
<trkpt lat="48.99953876" lon="-1.08614973"><ele></ele><time>2014-7-3T20:46:20Z</time></trkpt>
<trkpt lat="48.99944974" lon="-1.08676915"><ele></ele><time>2014-7-3T20:46:23Z</time></trkpt>
<trkpt lat="48.99939668" lon="-1.08754632"><ele></ele><time>2014-7-3T20:46:26Z</time></trkpt>
<trkpt lat="48.99939769" lon="-1.08781127"><ele></ele><time>2014-7-3T20:46:29Z</time></trkpt>
<trkpt lat="48.99929099" lon="-1.08832005"><ele></ele><time>2014-7-3T20:46:32Z</time></trkpt>
<trkpt lat="48.99906258" lon="-1.08888952"><ele></ele><time>2014-7-3T20:46:35Z</time></trkpt>
<trkpt lat="48.99903920" lon="-1.08893646"><ele></ele><time>2014-7-3T20:46:38Z</time></trkpt>
<trkpt lat="48.99895588" lon="-1.08906906"><ele></ele><time>2014-7-3T20:46:41Z</time></trkpt>
<trkpt lat="48.99885848" lon="-1.08931054"><ele></ele><time>2014-7-3T20:46:44Z</time></trkpt>
<trkpt lat="48.99880224" lon="-1.08947743"><ele></ele><time>2014-7-3T20:46:47Z</time></trkpt>
<trkpt lat="48.99873225" lon="-1.08971363"><ele></ele><time>2014-7-3T20:46:50Z</time></trkpt>
<trkpt lat="48.99859504" lon="-1.09020925"><ele></ele><time>2014-7-3T20:46:53Z</time></trkpt>
<trkpt lat="48.99840578" lon="-1.09089422"><ele></ele><time>2014-7-3T20:46:56Z</time></trkpt>
<trkpt lat="48.99837258" lon="-1.09102439"><ele></ele><time>2014-7-3T20:46:59Z</time></trkpt>
<trkpt lat="48.99843419" lon="-1.09122086"><ele></ele><time>2014-7-3T20:47:2Z</time></trkpt>
<trkpt lat="48.99847425" lon="-1.09124199"><ele></ele><time>2014-7-3T20:47:5Z</time></trkpt>
<trkpt lat="48.99882286" lon="-1.09140342"><ele></ele><time>2014-7-3T20:47:8Z</time></trkpt>
<trkpt lat="48.99921304" lon="-1.09160174"><ele></ele><time>2014-7-3T20:47:11Z</time></trkpt>
<trkpt lat="48.99932586" lon="-1.09164993"><ele></ele><time>2014-7-3T20:47:14Z</time></trkpt>
<trkpt lat="48.99974965" lon="-1.09187356"><ele></ele><time>2014-7-3T20:47:17Z</time></trkpt>
<trkpt lat="49.00030562" lon="-1.09222652"><ele></ele><time>2014-7-3T20:47:20Z</time></trkpt>
<trkpt lat="49.00050435" lon="-1.09241906"><ele></ele><time>2014-7-3T20:47:23Z</time></trkpt>
<trkpt lat="49.00066277" lon="-1.09238209"><ele></ele><time>2014-7-3T20:47:26Z</time></trkpt>
<trkpt lat="49.00079696" lon="-1.09210633"><ele></ele><time>2014-7-3T20:47:29Z</time></trkpt>
<trkpt lat="49.00100316" lon="-1.09190240"><ele></ele><time>2014-7-3T20:47:32Z</time></trkpt>
<trkpt lat="49.00111087" lon="-1.09184959"><ele></ele><time>2014-7-3T20:47:35Z</time></trkpt>
<trkpt lat="49.00119050" lon="-1.09178245"><ele></ele><time>2014-7-3T20:47:38Z</time></trkpt>
<trkpt lat="49.00133349" lon="-1.09189695"><ele></ele><time>2014-7-3T20:47:41Z</time></trkpt>
<trkpt lat="49.00150767" lon="-1.09218906"><ele></ele><time>2014-7-3T20:47:44Z</time></trkpt>
<trkpt lat="49.00190799" lon="-1.09262777"><ele></ele><time>2014-7-3T20:47:47Z</time></trkpt>
<trkpt lat="49.00206682" lon="-1.09277302"><ele></ele><time>2014-7-3T20:47:50Z</time></trkpt>
<trkpt lat="49.00206565" lon="-1.09294309"><ele></ele><time>2014-7-3T20:47:53Z</time></trkpt>
<trkpt lat="49.00186113" lon="-1.09329329"><ele></ele><time>2014-7-3T20:47:56Z</time></trkpt>
<trkpt lat="49.00176449" lon="-1.09344383"><ele></ele><time>2014-7-3T20:47:59Z</time></trkpt>
<trkpt lat="49.00156877" lon="-1.09378765"><ele></ele><time>2014-7-3T20:48:2Z</time></trkpt>
<trkpt lat="49.00143332" lon="-1.09404783"><ele></ele><time>2014-7-3T20:48:5Z</time></trkpt>
<trkpt lat="49.00130642" lon="-1.09429157"><ele></ele><time>2014-7-3T20:48:8Z</time></trkpt>
<trkpt lat="49.00121036" lon="-1.09446349"><ele></ele><time>2014-7-3T20:48:11Z</time></trkpt>
<trkpt lat="49.00104348" lon="-1.09472726"><ele></ele><time>2014-7-3T20:48:14Z</time></trkpt>
<trkpt lat="49.00101523" lon="-1.09477873"><ele></ele><time>2014-7-3T20:48:17Z</time></trkpt>
<trkpt lat="49.00095480" lon="-1.09487252"><ele></ele><time>2014-7-3T20:48:20Z</time></trkpt>
<trkpt lat="49.00076662" lon="-1.09511392"><ele></ele><time>2014-7-3T20:48:23Z</time></trkpt>
<trkpt lat="49.00063595" lon="-1.09539002"><ele></ele><time>2014-7-3T20:48:26Z</time></trkpt>
<trkpt lat="49.00046965" lon="-1.09570216"><ele></ele><time>2014-7-3T20:48:29Z</time></trkpt>
<trkpt lat="49.00036220" lon="-1.09594306"><ele></ele><time>2014-7-3T20:48:32Z</time></trkpt>
<trkpt lat="49.00031316" lon="-1.09614875"><ele></ele><time>2014-7-3T20:48:35Z</time></trkpt>
<trkpt lat="49.00030469" lon="-1.09634556"><ele></ele><time>2014-7-3T20:48:38Z</time></trkpt>
<trkpt lat="49.00033772" lon="-1.09644229"><ele></ele><time>2014-7-3T20:48:41Z</time></trkpt>
<trkpt lat="49.00031132" lon="-1.09667715"><ele></ele><time>2014-7-3T20:48:44Z</time></trkpt>
<trkpt lat="49.00038692" lon="-1.09671780"><ele></ele><time>2014-7-3T20:48:47Z</time></trkpt>
<trkpt lat="49.00049614" lon="-1.09665209"><ele></ele><time>2014-7-3T20:48:50Z</time></trkpt>
<trkpt lat="49.00055154" lon="-1.09677178"><ele></ele><time>2014-7-3T20:48:53Z</time></trkpt>
<trkpt lat="49.00051265" lon="-1.09687236"><ele></ele><time>2014-7-3T20:48:56Z</time></trkpt>
<trkpt lat="49.00041634" lon="-1.09704612"><ele></ele><time>2014-7-3T20:48:59Z</time></trkpt>
<trkpt lat="49.00029522" lon="-1.09723656"><ele></ele><time>2014-7-3T20:49:2Z</time></trkpt>
<trkpt lat="49.00016539" lon="-1.09745985"><ele></ele><time>2014-7-3T20:49:5Z</time></trkpt>
<trkpt lat="49.00004586" lon="-1.09761768"><ele></ele><time>2014-7-3T20:49:8Z</time></trkpt>
<trkpt lat="48.99975057" lon="-1.09801582"><ele></ele><time>2014-7-3T20:49:11Z</time></trkpt>
<trkpt lat="48.99960028" lon="-1.09833207"><ele></ele><time>2014-7-3T20:49:14Z</time></trkpt>
<trkpt lat="48.99956759" lon="-1.09868386"><ele></ele><time>2014-7-3T20:49:17Z</time></trkpt>
<trkpt lat="48.99963724" lon="-1.09907839"><ele></ele><time>2014-7-3T20:49:20Z</time></trkpt>
<trkpt lat="48.99970413" lon="-1.09924754"><ele></ele><time>2014-7-3T20:49:23Z</time></trkpt>
<trkpt lat="48.99975803" lon="-1.09940839"><ele></ele><time>2014-7-3T20:49:26Z</time></trkpt>
<trkpt lat="48.99993195" lon="-1.09974777"><ele></ele><time>2014-7-3T20:49:29Z</time></trkpt>
<trkpt lat="49.00012943" lon="-1.10005916"><ele></ele><time>2014-7-3T20:49:32Z</time></trkpt>
<trkpt lat="49.00028827" lon="-1.10031162"><ele></ele><time>2014-7-3T20:49:35Z</time></trkpt>
<trkpt lat="49.00040352" lon="-1.10051589"><ele></ele><time>2014-7-3T20:49:38Z</time></trkpt>
<trkpt lat="49.00037033" lon="-1.10062603"><ele></ele><time>2014-7-3T20:49:41Z</time></trkpt>
<trkpt lat="49.00009490" lon="-1.10132416"><ele></ele><time>2014-7-3T20:49:44Z</time></trkpt>
<trkpt lat="48.99991343" lon="-1.10178156"><ele></ele><time>2014-7-3T20:49:47Z</time></trkpt>
<trkpt lat="48.99973682" lon="-1.10217165"><ele></ele><time>2014-7-3T20:49:50Z</time></trkpt>
<trkpt lat="48.99956072" lon="-1.10277238"><ele></ele><time>2014-7-3T20:49:53Z</time></trkpt>
<trkpt lat="48.99946592" lon="-1.10320707"><ele></ele><time>2014-7-3T20:49:56Z</time></trkpt>
<trkpt lat="48.99941010" lon="-1.10350957"><ele></ele><time>2014-7-3T20:49:59Z</time></trkpt>
<trkpt lat="48.99931588" lon="-1.10391534"><ele></ele><time>2014-7-3T20:50:2Z</time></trkpt>
<trkpt lat="48.99930716" lon="-1.10398013"><ele></ele><time>2014-7-3T20:50:5Z</time></trkpt>
<trkpt lat="48.99924036" lon="-1.10436972"><ele></ele><time>2014-7-3T20:50:8Z</time></trkpt>
<trkpt lat="48.99920524" lon="-1.10483534"><ele></ele><time>2014-7-3T20:50:11Z</time></trkpt>
<trkpt lat="48.99920516" lon="-1.10489728"><ele></ele><time>2014-7-3T20:50:14Z</time></trkpt>
<trkpt lat="48.99924455" lon="-1.10530774"><ele></ele><time>2014-7-3T20:50:17Z</time></trkpt>
<trkpt lat="48.99932066" lon="-1.10555367"><ele></ele><time>2014-7-3T20:50:20Z</time></trkpt>
<trkpt lat="48.99942543" lon="-1.10571276"><ele></ele><time>2014-7-3T20:50:23Z</time></trkpt>
<trkpt lat="48.99951847" lon="-1.10581987"><ele></ele><time>2014-7-3T20:50:26Z</time></trkpt>
<trkpt lat="48.99963825" lon="-1.10593513"><ele></ele><time>2014-7-3T20:50:29Z</time></trkpt>
<trkpt lat="48.99974680" lon="-1.10605407"><ele></ele><time>2014-7-3T20:50:32Z</time></trkpt>
<trkpt lat="48.99989943" lon="-1.10620703"><ele></ele><time>2014-7-3T20:50:35Z</time></trkpt>
<trkpt lat="49.00004226" lon="-1.10631466"><ele></ele><time>2014-7-3T20:50:38Z</time></trkpt>
<trkpt lat="49.00017796" lon="-1.10641885"><ele></ele><time>2014-7-3T20:50:41Z</time></trkpt>
<trkpt lat="49.00040276" lon="-1.10657064"><ele></ele><time>2014-7-3T20:50:44Z</time></trkpt>
<trkpt lat="49.00065908" lon="-1.10673300"><ele></ele><time>2014-7-3T20:50:47Z</time></trkpt>
<trkpt lat="49.00072337" lon="-1.10690198"><ele></ele><time>2014-7-3T20:50:50Z</time></trkpt>
<trkpt lat="49.00081666" lon="-1.10714229"><ele></ele><time>2014-7-3T20:50:53Z</time></trkpt>
<trkpt lat="49.00091465" lon="-1.10740422"><ele></ele><time>2014-7-3T20:50:56Z</time></trkpt>
<trkpt lat="49.00103174" lon="-1.10770832"><ele></ele><time>2014-7-3T20:50:59Z</time></trkpt>
<trkpt lat="49.00112646" lon="-1.10797872"><ele></ele><time>2014-7-3T20:51:2Z</time></trkpt>
<trkpt lat="49.00129309" lon="-1.10857425"><ele></ele><time>2014-7-3T20:51:5Z</time></trkpt>
<trkpt lat="49.00132385" lon="-1.10869420"><ele></ele><time>2014-7-3T20:51:8Z</time></trkpt>
<trkpt lat="49.00146039" lon="-1.10893199"><ele></ele><time>2014-7-3T20:51:11Z</time></trkpt>
<trkpt lat="49.00173415" lon="-1.10940205"><ele></ele><time>2014-7-3T20:51:14Z</time></trkpt>
<trkpt lat="49.00197764" lon="-1.10991469"><ele></ele><time>2014-7-3T20:51:17Z</time></trkpt>
<trkpt lat="49.00216598" lon="-1.11035373"><ele></ele><time>2014-7-3T20:51:20Z</time></trkpt>
<trkpt lat="49.00238098" lon="-1.11088162"><ele></ele><time>2014-7-3T20:51:23Z</time></trkpt>
<trkpt lat="49.00257376" lon="-1.11128270"><ele></ele><time>2014-7-3T20:51:26Z</time></trkpt>
<trkpt lat="49.00270167" lon="-1.11151739"><ele></ele><time>2014-7-3T20:51:29Z</time></trkpt>
<trkpt lat="49.00283729" lon="-1.11156207"><ele></ele><time>2014-7-3T20:51:32Z</time></trkpt>
<trkpt lat="49.00291608" lon="-1.11148378"><ele></ele><time>2014-7-3T20:51:35Z</time></trkpt>
<trkpt lat="49.00311456" lon="-1.11109989"><ele></ele><time>2014-7-3T20:51:38Z</time></trkpt>
<trkpt lat="49.00317868" lon="-1.11096938"><ele></ele><time>2014-7-3T20:51:41Z</time></trkpt>
<trkpt lat="49.00324943" lon="-1.11083175"><ele></ele><time>2014-7-3T20:51:44Z</time></trkpt>
<trkpt lat="49.00337566" lon="-1.11081549"><ele></ele><time>2014-7-3T20:51:47Z</time></trkpt>
<trkpt lat="49.00346358" lon="-1.11098506"><ele></ele><time>2014-7-3T20:51:50Z</time></trkpt>
<trkpt lat="49.00348655" lon="-1.11102898"><ele></ele><time>2014-7-3T20:51:53Z</time></trkpt>
<trkpt lat="49.00371144" lon="-1.11151043"><ele></ele><time>2014-7-3T20:51:56Z</time></trkpt>
<trkpt lat="49.00395862" lon="-1.11203640"><ele></ele><time>2014-7-3T20:51:59Z</time></trkpt>
<trkpt lat="49.00416263" lon="-1.11247234"><ele></ele><time>2014-7-3T20:52:2Z</time></trkpt>
<trkpt lat="49.00437126" lon="-1.11290334"><ele></ele><time>2014-7-3T20:52:5Z</time></trkpt>
<trkpt lat="49.00463085" lon="-1.11343165"><ele></ele><time>2014-7-3T20:52:8Z</time></trkpt>
<trkpt lat="49.00467980" lon="-1.11354506"><ele></ele><time>2014-7-3T20:52:11Z</time></trkpt>
<trkpt lat="49.00459623" lon="-1.11370616"><ele></ele><time>2014-7-3T20:52:14Z</time></trkpt>
<trkpt lat="49.00453982" lon="-1.11378889"><ele></ele><time>2014-7-3T20:52:17Z</time></trkpt>
<trkpt lat="49.00454636" lon="-1.11399483"><ele></ele><time>2014-7-3T20:52:20Z</time></trkpt>
<trkpt lat="49.00468927" lon="-1.11429079"><ele></ele><time>2014-7-3T20:52:23Z</time></trkpt>
<trkpt lat="49.00486127" lon="-1.11461459"><ele></ele><time>2014-7-3T20:52:26Z</time></trkpt>
<trkpt lat="49.00501507" lon="-1.11496294"><ele></ele><time>2014-7-3T20:52:29Z</time></trkpt>
<trkpt lat="49.00496126" lon="-1.11514952"><ele></ele><time>2014-7-3T20:52:32Z</time></trkpt>
<trkpt lat="49.00487585" lon="-1.11541766"><ele></ele><time>2014-7-3T20:52:35Z</time></trkpt>
<trkpt lat="49.00487225" lon="-1.11575000"><ele></ele><time>2014-7-3T20:52:38Z</time></trkpt>
<trkpt lat="49.00494819" lon="-1.11595167"><ele></ele><time>2014-7-3T20:52:41Z</time></trkpt>
<trkpt lat="49.00505816" lon="-1.11582016"><ele></ele><time>2014-7-3T20:52:44Z</time></trkpt>
<trkpt lat="49.00531364" lon="-1.11558815"><ele></ele><time>2014-7-3T20:52:47Z</time></trkpt>
<trkpt lat="49.00551019" lon="-1.11540668"><ele></ele><time>2014-7-3T20:52:50Z</time></trkpt>
<trkpt lat="49.00569066" lon="-1.11523678"><ele></ele><time>2014-7-3T20:52:53Z</time></trkpt>
<trkpt lat="49.00583407" lon="-1.11511205"><ele></ele><time>2014-7-3T20:52:56Z</time></trkpt>
<trkpt lat="49.00610623" lon="-1.11489454"><ele></ele><time>2014-7-3T20:52:59Z</time></trkpt>
<trkpt lat="49.00632835" lon="-1.11469765"><ele></ele><time>2014-7-3T20:53:2Z</time></trkpt>
<trkpt lat="49.00637378" lon="-1.11465742"><ele></ele><time>2014-7-3T20:53:5Z</time></trkpt>
<trkpt lat="49.00657402" lon="-1.11452448"><ele></ele><time>2014-7-3T20:53:8Z</time></trkpt>
<trkpt lat="49.00665089" lon="-1.11447712"><ele></ele><time>2014-7-3T20:53:11Z</time></trkpt>
<trkpt lat="49.00671383" lon="-1.11444502"><ele></ele><time>2014-7-3T20:53:14Z</time></trkpt>
<trkpt lat="49.00674049" lon="-1.11443178"><ele></ele><time>2014-7-3T20:53:17Z</time></trkpt>
<trkpt lat="49.00680536" lon="-1.11441409"><ele></ele><time>2014-7-3T20:53:20Z</time></trkpt>
<trkpt lat="49.00698834" lon="-1.11437093"><ele></ele><time>2014-7-3T20:53:23Z</time></trkpt>
<trkpt lat="49.00719378" lon="-1.11435718"><ele></ele><time>2014-7-3T20:53:26Z</time></trkpt>
<trkpt lat="49.00734340" lon="-1.11426615"><ele></ele><time>2014-7-3T20:53:29Z</time></trkpt>
<trkpt lat="49.00755873" lon="-1.11411167"><ele></ele><time>2014-7-3T20:53:32Z</time></trkpt>
<trkpt lat="49.00764674" lon="-1.11402232"><ele></ele><time>2014-7-3T20:53:35Z</time></trkpt>
<trkpt lat="49.00785503" lon="-1.11386566"><ele></ele><time>2014-7-3T20:53:38Z</time></trkpt>
<trkpt lat="49.00803918" lon="-1.11373927"><ele></ele><time>2014-7-3T20:53:41Z</time></trkpt>
<trkpt lat="49.00818067" lon="-1.11365343"><ele></ele><time>2014-7-3T20:53:44Z</time></trkpt>
<trkpt lat="49.00819458" lon="-1.11363617"><ele></ele><time>2014-7-3T20:53:47Z</time></trkpt>
<trkpt lat="49.00829064" lon="-1.11349175"><ele></ele><time>2014-7-3T20:53:50Z</time></trkpt>
<trkpt lat="49.00841620" lon="-1.11337080"><ele></ele><time>2014-7-3T20:53:53Z</time></trkpt>
<trkpt lat="49.00851946" lon="-1.11330693"><ele></ele><time>2014-7-3T20:53:56Z</time></trkpt>
<trkpt lat="49.00870445" lon="-1.11329293"><ele></ele><time>2014-7-3T20:53:59Z</time></trkpt>
<trkpt lat="49.00885122" lon="-1.11334800"><ele></ele><time>2014-7-3T20:54:2Z</time></trkpt>
<trkpt lat="49.00899774" lon="-1.11338094"><ele></ele><time>2014-7-3T20:54:5Z</time></trkpt>
<trkpt lat="49.00913947" lon="-1.11336820"><ele></ele><time>2014-7-3T20:54:8Z</time></trkpt>
<trkpt lat="49.00920720" lon="-1.11334154"><ele></ele><time>2014-7-3T20:54:11Z</time></trkpt>
<trkpt lat="49.00924634" lon="-1.11331154"><ele></ele><time>2014-7-3T20:54:14Z</time></trkpt>
<trkpt lat="49.00928984" lon="-1.11325337"><ele></ele><time>2014-7-3T20:54:17Z</time></trkpt>
<trkpt lat="49.00936478" lon="-1.11316569"><ele></ele><time>2014-7-3T20:54:20Z</time></trkpt>
<trkpt lat="49.00943753" lon="-1.11306528"><ele></ele><time>2014-7-3T20:54:23Z</time></trkpt>
<trkpt lat="49.00951917" lon="-1.11296796"><ele></ele><time>2014-7-3T20:54:26Z</time></trkpt>
<trkpt lat="49.00955815" lon="-1.11292706"><ele></ele><time>2014-7-3T20:54:29Z</time></trkpt>
<trkpt lat="49.00960173" lon="-1.11286378"><ele></ele><time>2014-7-3T20:54:32Z</time></trkpt>
<trkpt lat="49.00967105" lon="-1.11277409"><ele></ele><time>2014-7-3T20:54:35Z</time></trkpt>
<trkpt lat="49.00974574" lon="-1.11267443"><ele></ele><time>2014-7-3T20:54:38Z</time></trkpt>
<trkpt lat="49.00988504" lon="-1.11257242"><ele></ele><time>2014-7-3T20:54:41Z</time></trkpt>
<trkpt lat="49.00996660" lon="-1.11248927"><ele></ele><time>2014-7-3T20:54:44Z</time></trkpt>
<trkpt lat="49.01008747" lon="-1.11240503"><ele></ele><time>2014-7-3T20:54:47Z</time></trkpt>
<trkpt lat="49.01022837" lon="-1.11229875"><ele></ele><time>2014-7-3T20:54:50Z</time></trkpt>
<trkpt lat="49.01034035" lon="-1.11218392"><ele></ele><time>2014-7-3T20:54:53Z</time></trkpt>
<trkpt lat="49.01047714" lon="-1.11197999"><ele></ele><time>2014-7-3T20:54:56Z</time></trkpt>
<trkpt lat="49.01059063" lon="-1.11178167"><ele></ele><time>2014-7-3T20:54:59Z</time></trkpt>
<trkpt lat="49.01071133" lon="-1.11157657"><ele></ele><time>2014-7-3T20:55:2Z</time></trkpt>
<trkpt lat="49.01081912" lon="-1.11161814"><ele></ele><time>2014-7-3T20:55:5Z</time></trkpt>
<trkpt lat="49.01095298" lon="-1.11183004"><ele></ele><time>2014-7-3T20:55:8Z</time></trkpt>
<trkpt lat="49.01104158" lon="-1.11200027"><ele></ele><time>2014-7-3T20:55:11Z</time></trkpt>
<trkpt lat="49.01127434" lon="-1.11245030"><ele></ele><time>2014-7-3T20:55:14Z</time></trkpt>
<trkpt lat="49.01137576" lon="-1.11266965"><ele></ele><time>2014-7-3T20:55:17Z</time></trkpt>
<trkpt lat="49.01155312" lon="-1.11309336"><ele></ele><time>2014-7-3T20:55:20Z</time></trkpt>
<trkpt lat="49.01160886" lon="-1.11323928"><ele></ele><time>2014-7-3T20:55:23Z</time></trkpt>
<trkpt lat="49.01177818" lon="-1.11379274"><ele></ele><time>2014-7-3T20:55:26Z</time></trkpt>
<trkpt lat="49.01191204" lon="-1.11424327"><ele></ele><time>2014-7-3T20:55:29Z</time></trkpt>
<trkpt lat="49.01215386" lon="-1.11468022"><ele></ele><time>2014-7-3T20:55:32Z</time></trkpt>
<trkpt lat="49.01227472" lon="-1.11470218"><ele></ele><time>2014-7-3T20:55:35Z</time></trkpt>
<trkpt lat="49.01252207" lon="-1.11467653"><ele></ele><time>2014-7-3T20:55:38Z</time></trkpt>
<trkpt lat="49.01261578" lon="-1.11465943"><ele></ele><time>2014-7-3T20:55:41Z</time></trkpt>
<trkpt lat="49.01285802" lon="-1.11462615"><ele></ele><time>2014-7-3T20:55:44Z</time></trkpt>
<trkpt lat="49.01300177" lon="-1.11464015"><ele></ele><time>2014-7-3T20:55:47Z</time></trkpt>
<trkpt lat="49.01327762" lon="-1.11463504"><ele></ele><time>2014-7-3T20:55:50Z</time></trkpt>
<trkpt lat="49.01353184" lon="-1.11456966"><ele></ele><time>2014-7-3T20:55:53Z</time></trkpt>
<trkpt lat="49.01371457" lon="-1.11453043"><ele></ele><time>2014-7-3T20:55:56Z</time></trkpt>
<trkpt lat="49.01378925" lon="-1.11445256"><ele></ele><time>2014-7-3T20:55:59Z</time></trkpt>
<trkpt lat="49.01382462" lon="-1.11426439"><ele></ele><time>2014-7-3T20:56:2Z</time></trkpt>
<trkpt lat="49.01378615" lon="-1.11408502"><ele></ele><time>2014-7-3T20:56:5Z</time></trkpt>
<trkpt lat="49.01369822" lon="-1.11393993"><ele></ele><time>2014-7-3T20:56:8Z</time></trkpt>
<trkpt lat="49.01359722" lon="-1.11360054"><ele></ele><time>2014-7-3T20:56:11Z</time></trkpt>
<trkpt lat="49.01354592" lon="-1.11309797"><ele></ele><time>2014-7-3T20:56:14Z</time></trkpt>
<trkpt lat="49.01349664" lon="-1.11263604"><ele></ele><time>2014-7-3T20:56:17Z</time></trkpt>
<trkpt lat="49.01345934" lon="-1.11223865"><ele></ele><time>2014-7-3T20:56:20Z</time></trkpt>
<trkpt lat="49.01344123" lon="-1.11202844"><ele></ele><time>2014-7-3T20:56:23Z</time></trkpt>
<trkpt lat="49.01341382" lon="-1.11164094"><ele></ele><time>2014-7-3T20:56:26Z</time></trkpt>
<trkpt lat="49.01338365" lon="-1.11118488"><ele></ele><time>2014-7-3T20:56:29Z</time></trkpt>
<trkpt lat="49.01335674" lon="-1.11084768"><ele></ele><time>2014-7-3T20:56:32Z</time></trkpt>
<trkpt lat="49.01334115" lon="-1.11057694"><ele></ele><time>2014-7-3T20:56:35Z</time></trkpt>
<trkpt lat="49.01333948" lon="-1.11050662"><ele></ele><time>2014-7-3T20:56:38Z</time></trkpt>
<trkpt lat="49.01342413" lon="-1.11024845"><ele></ele><time>2014-7-3T20:56:41Z</time></trkpt>
<trkpt lat="49.01356252" lon="-1.11018090"><ele></ele><time>2014-7-3T20:56:44Z</time></trkpt>
<trkpt lat="49.01382848" lon="-1.11012507"><ele></ele><time>2014-7-3T20:56:47Z</time></trkpt>
<trkpt lat="49.01414188" lon="-1.11006556"><ele></ele><time>2014-7-3T20:56:50Z</time></trkpt>
<trkpt lat="49.01440616" lon="-1.11002214"><ele></ele><time>2014-7-3T20:56:53Z</time></trkpt>
<trkpt lat="49.01466315" lon="-1.10997914"><ele></ele><time>2014-7-3T20:56:56Z</time></trkpt>
<trkpt lat="49.01486792" lon="-1.10993849"><ele></ele><time>2014-7-3T20:56:59Z</time></trkpt>
<trkpt lat="49.01513002" lon="-1.10987772"><ele></ele><time>2014-7-3T20:57:2Z</time></trkpt>
<trkpt lat="49.01535524" lon="-1.10980832"><ele></ele><time>2014-7-3T20:57:5Z</time></trkpt>
<trkpt lat="49.01567375" lon="-1.10968712"><ele></ele><time>2014-7-3T20:57:8Z</time></trkpt>
<trkpt lat="49.01597726" lon="-1.10955703"><ele></ele><time>2014-7-3T20:57:11Z</time></trkpt>
<trkpt lat="49.01622227" lon="-1.10945016"><ele></ele><time>2014-7-3T20:57:14Z</time></trkpt>
<trkpt lat="49.01653323" lon="-1.10929593"><ele></ele><time>2014-7-3T20:57:17Z</time></trkpt>
<trkpt lat="49.01685334" lon="-1.10909276"><ele></ele><time>2014-7-3T20:57:20Z</time></trkpt>
<trkpt lat="49.01712935" lon="-1.10891749"><ele></ele><time>2014-7-3T20:57:23Z</time></trkpt>
<trkpt lat="49.01744544" lon="-1.10872865"><ele></ele><time>2014-7-3T20:57:26Z</time></trkpt>
<trkpt lat="49.01765968" lon="-1.10856595"><ele></ele><time>2014-7-3T20:57:29Z</time></trkpt>
<trkpt lat="49.01784877" lon="-1.10847325"><ele></ele><time>2014-7-3T20:57:32Z</time></trkpt>
<trkpt lat="49.01805170" lon="-1.10815608"><ele></ele><time>2014-7-3T20:57:35Z</time></trkpt>
<trkpt lat="49.01812864" lon="-1.10801510"><ele></ele><time>2014-7-3T20:57:38Z</time></trkpt>
<trkpt lat="49.01816779" lon="-1.10793924"><ele></ele><time>2014-7-3T20:57:41Z</time></trkpt>
<trkpt lat="49.01842603" lon="-1.10742685"><ele></ele><time>2014-7-3T20:57:44Z</time></trkpt>
<trkpt lat="49.01867548" lon="-1.10691229"><ele></ele><time>2014-7-3T20:57:47Z</time></trkpt>
<trkpt lat="49.01891730" lon="-1.10649194"><ele></ele><time>2014-7-3T20:57:50Z</time></trkpt>
<trkpt lat="49.01898360" lon="-1.10640317"><ele></ele><time>2014-7-3T20:57:53Z</time></trkpt>
<trkpt lat="49.01910019" lon="-1.10626143"><ele></ele><time>2014-7-3T20:57:56Z</time></trkpt>
<trkpt lat="49.01929239" lon="-1.10625808"><ele></ele><time>2014-7-3T20:57:59Z</time></trkpt>
<trkpt lat="49.01957804" lon="-1.10661188"><ele></ele><time>2014-7-3T20:58:2Z</time></trkpt>
<trkpt lat="49.01972925" lon="-1.10675655"><ele></ele><time>2014-7-3T20:58:5Z</time></trkpt>
<trkpt lat="49.01996504" lon="-1.10685948"><ele></ele><time>2014-7-3T20:58:8Z</time></trkpt>
<trkpt lat="49.02015958" lon="-1.10690567"><ele></ele><time>2014-7-3T20:58:11Z</time></trkpt>
<trkpt lat="49.02043124" lon="-1.10687038"><ele></ele><time>2014-7-3T20:58:14Z</time></trkpt>
<trkpt lat="49.02059745" lon="-1.10697683"><ele></ele><time>2014-7-3T20:58:17Z</time></trkpt>
<trkpt lat="49.02076836" lon="-1.10735896"><ele></ele><time>2014-7-3T20:58:20Z</time></trkpt>
<trkpt lat="49.02086374" lon="-1.10760623"><ele></ele><time>2014-7-3T20:58:23Z</time></trkpt>
<trkpt lat="49.02098453" lon="-1.10771704"><ele></ele><time>2014-7-3T20:58:26Z</time></trkpt>
<trkpt lat="49.02102937" lon="-1.10770245"><ele></ele><time>2014-7-3T20:58:29Z</time></trkpt>
<trkpt lat="49.02137697" lon="-1.10751897"><ele></ele><time>2014-7-3T20:58:32Z</time></trkpt>
<trkpt lat="49.02162130" lon="-1.10751294"><ele></ele><time>2014-7-3T20:58:35Z</time></trkpt>
<trkpt lat="49.02166824" lon="-1.10753029"><ele></ele><time>2014-7-3T20:58:38Z</time></trkpt>
<trkpt lat="49.02202682" lon="-1.10764973"><ele></ele><time>2014-7-3T20:58:41Z</time></trkpt>
<trkpt lat="49.02207434" lon="-1.10766767"><ele></ele><time>2014-7-3T20:58:44Z</time></trkpt>
<trkpt lat="49.02232488" lon="-1.10771553"><ele></ele><time>2014-7-3T20:58:47Z</time></trkpt>
<trkpt lat="49.02260902" lon="-1.10779549"><ele></ele><time>2014-7-3T20:58:50Z</time></trkpt>
<trkpt lat="49.02265462" lon="-1.10780622"><ele></ele><time>2014-7-3T20:58:53Z</time></trkpt>
<trkpt lat="49.02303097" lon="-1.10793002"><ele></ele><time>2014-7-3T20:58:56Z</time></trkpt>
<trkpt lat="49.02308788" lon="-1.10794318"><ele></ele><time>2014-7-3T20:58:59Z</time></trkpt>
<trkpt lat="49.02330656" lon="-1.10809774"><ele></ele><time>2014-7-3T20:59:2Z</time></trkpt>
<trkpt lat="49.02360144" lon="-1.10833109"><ele></ele><time>2014-7-3T20:59:5Z</time></trkpt>
<trkpt lat="49.02374284" lon="-1.10847115"><ele></ele><time>2014-7-3T20:59:8Z</time></trkpt>
<trkpt lat="49.02395214" lon="-1.10891297"><ele></ele><time>2014-7-3T20:59:11Z</time></trkpt>
<trkpt lat="49.02403160" lon="-1.10905722"><ele></ele><time>2014-7-3T20:59:14Z</time></trkpt>
<trkpt lat="49.02412447" lon="-1.10945393"><ele></ele><time>2014-7-3T20:59:17Z</time></trkpt>
<trkpt lat="49.02413419" lon="-1.10952267"><ele></ele><time>2014-7-3T20:59:20Z</time></trkpt>
<trkpt lat="49.02417066" lon="-1.10986557"><ele></ele><time>2014-7-3T20:59:23Z</time></trkpt>
<trkpt lat="49.02427518" lon="-1.11002248"><ele></ele><time>2014-7-3T20:59:26Z</time></trkpt>
<trkpt lat="49.02444432" lon="-1.10990589"><ele></ele><time>2014-7-3T20:59:29Z</time></trkpt>
<trkpt lat="49.02463166" lon="-1.10978753"><ele></ele><time>2014-7-3T20:59:32Z</time></trkpt>
<trkpt lat="49.02493056" lon="-1.10960548"><ele></ele><time>2014-7-3T20:59:35Z</time></trkpt>
<trkpt lat="49.02513307" lon="-1.10947732"><ele></ele><time>2014-7-3T20:59:38Z</time></trkpt>
<trkpt lat="49.02536617" lon="-1.10936995"><ele></ele><time>2014-7-3T20:59:41Z</time></trkpt>
<trkpt lat="49.02575215" lon="-1.10917607"><ele></ele><time>2014-7-3T20:59:44Z</time></trkpt>
<trkpt lat="49.02620846" lon="-1.10893702"><ele></ele><time>2014-7-3T20:59:47Z</time></trkpt>
<trkpt lat="49.02654659" lon="-1.10875254"><ele></ele><time>2014-7-3T20:59:50Z</time></trkpt>
<trkpt lat="49.02693979" lon="-1.10853452"><ele></ele><time>2014-7-3T20:59:53Z</time></trkpt>
<trkpt lat="49.02725193" lon="-1.10845724"><ele></ele><time>2014-7-3T20:59:56Z</time></trkpt>
<trkpt lat="49.02782575" lon="-1.10842195"><ele></ele><time>2014-7-3T20:59:59Z</time></trkpt>
<trkpt lat="49.02818458" lon="-1.10839739"><ele></ele><time>2014-7-3T21:0:2Z</time></trkpt>
<trkpt lat="49.02856772" lon="-1.10815549"><ele></ele><time>2014-7-3T21:0:5Z</time></trkpt>
<trkpt lat="49.02908170" lon="-1.10779675"><ele></ele><time>2014-7-3T21:0:8Z</time></trkpt>
<trkpt lat="49.02941597" lon="-1.10758418"><ele></ele><time>2014-7-3T21:0:11Z</time></trkpt>
<trkpt lat="49.02981645" lon="-1.10734572"><ele></ele><time>2014-7-3T21:0:14Z</time></trkpt>
<trkpt lat="49.03015827" lon="-1.10717682"><ele></ele><time>2014-7-3T21:0:17Z</time></trkpt>
<trkpt lat="49.03050804" lon="-1.10700943"><ele></ele><time>2014-7-3T21:0:20Z</time></trkpt>
<trkpt lat="49.03056102" lon="-1.10697809"><ele></ele><time>2014-7-3T21:0:23Z</time></trkpt>
<trkpt lat="49.03076353" lon="-1.10667215"><ele></ele><time>2014-7-3T21:0:26Z</time></trkpt>
<trkpt lat="49.03094516" lon="-1.10594552"><ele></ele><time>2014-7-3T21:0:29Z</time></trkpt>
<trkpt lat="49.03108338" lon="-1.10528712"><ele></ele><time>2014-7-3T21:0:32Z</time></trkpt>
<trkpt lat="49.03124708" lon="-1.10460123"><ele></ele><time>2014-7-3T21:0:35Z</time></trkpt>
<trkpt lat="49.03138169" lon="-1.10407376"><ele></ele><time>2014-7-3T21:0:38Z</time></trkpt>
<trkpt lat="49.03161865" lon="-1.10336792"><ele></ele><time>2014-7-3T21:0:41Z</time></trkpt>
<trkpt lat="49.03189810" lon="-1.10264976"><ele></ele><time>2014-7-3T21:0:44Z</time></trkpt>
<trkpt lat="49.03195845" lon="-1.10248975"><ele></ele><time>2014-7-3T21:0:47Z</time></trkpt>
<trkpt lat="49.03202483" lon="-1.10227978"><ele></ele><time>2014-7-3T21:0:50Z</time></trkpt>
<trkpt lat="49.03203665" lon="-1.10226293"><ele></ele><time>2014-7-3T21:0:53Z</time></trkpt>
<trkpt lat="49.03206842" lon="-1.10213125"><ele></ele><time>2014-7-3T21:0:56Z</time></trkpt>
<trkpt lat="49.03208770" lon="-1.10181048"><ele></ele><time>2014-7-3T21:0:59Z</time></trkpt>
<trkpt lat="49.03209147" lon="-1.10175734"><ele></ele><time>2014-7-3T21:1:2Z</time></trkpt>
<trkpt lat="49.03211377" lon="-1.10125308"><ele></ele><time>2014-7-3T21:1:5Z</time></trkpt>
<trkpt lat="49.03214704" lon="-1.10068319"><ele></ele><time>2014-7-3T21:1:8Z</time></trkpt>
<trkpt lat="49.03216079" lon="-1.10027273"><ele></ele><time>2014-7-3T21:1:11Z</time></trkpt>
<trkpt lat="49.03203749" lon="-1.09997945"><ele></ele><time>2014-7-3T21:1:14Z</time></trkpt>
<trkpt lat="49.03189307" lon="-1.09970855"><ele></ele><time>2014-7-3T21:1:17Z</time></trkpt>
<trkpt lat="49.03186876" lon="-1.09916397"><ele></ele><time>2014-7-3T21:1:20Z</time></trkpt>
<trkpt lat="49.03186030" lon="-1.09886625"><ele></ele><time>2014-7-3T21:1:23Z</time></trkpt>
<trkpt lat="49.03194328" lon="-1.09873323"><ele></ele><time>2014-7-3T21:1:26Z</time></trkpt>
<trkpt lat="49.03225265" lon="-1.09872686"><ele></ele><time>2014-7-3T21:1:29Z</time></trkpt>
<trkpt lat="49.03245147" lon="-1.09871085"><ele></ele><time>2014-7-3T21:1:32Z</time></trkpt>
<trkpt lat="49.03266848" lon="-1.09868746"><ele></ele><time>2014-7-3T21:1:35Z</time></trkpt>
<trkpt lat="49.03294534" lon="-1.09865293"><ele></ele><time>2014-7-3T21:1:38Z</time></trkpt>
<trkpt lat="49.03343836" lon="-1.09857230"><ele></ele><time>2014-7-3T21:1:41Z</time></trkpt>
<trkpt lat="49.03393909" lon="-1.09848563"><ele></ele><time>2014-7-3T21:1:44Z</time></trkpt>
<trkpt lat="49.03401847" lon="-1.09846635"><ele></ele><time>2014-7-3T21:1:47Z</time></trkpt>
<trkpt lat="49.03409014" lon="-1.09831019"><ele></ele><time>2014-7-3T21:1:50Z</time></trkpt>
<trkpt lat="49.03408159" lon="-1.09825747"><ele></ele><time>2014-7-3T21:1:53Z</time></trkpt>
<trkpt lat="49.03393976" lon="-1.09763612"><ele></ele><time>2014-7-3T21:1:56Z</time></trkpt>
<trkpt lat="49.03378193" lon="-1.09689265"><ele></ele><time>2014-7-3T21:1:59Z</time></trkpt>
<trkpt lat="49.03365134" lon="-1.09627239"><ele></ele><time>2014-7-3T21:2:2Z</time></trkpt>
<trkpt lat="49.03345957" lon="-1.09538633"><ele></ele><time>2014-7-3T21:2:5Z</time></trkpt>
<trkpt lat="49.03342042" lon="-1.09522146"><ele></ele><time>2014-7-3T21:2:8Z</time></trkpt>
<trkpt lat="49.03324868" lon="-1.09463934"><ele></ele><time>2014-7-3T21:2:11Z</time></trkpt>
<trkpt lat="49.03303142" lon="-1.09396107"><ele></ele><time>2014-7-3T21:2:14Z</time></trkpt>
<trkpt lat="49.03293477" lon="-1.09363259"><ele></ele><time>2014-7-3T21:2:17Z</time></trkpt>
<trkpt lat="49.03283528" lon="-1.09331408"><ele></ele><time>2014-7-3T21:2:20Z</time></trkpt>
<trkpt lat="49.03282690" lon="-1.09309548"><ele></ele><time>2014-7-3T21:2:23Z</time></trkpt>
<trkpt lat="49.03296269" lon="-1.09304125"><ele></ele><time>2014-7-3T21:2:26Z</time></trkpt>
<trkpt lat="49.03334767" lon="-1.09307913"><ele></ele><time>2014-7-3T21:2:29Z</time></trkpt>
<trkpt lat="49.03353014" lon="-1.09308114"><ele></ele><time>2014-7-3T21:2:32Z</time></trkpt>
<trkpt lat="49.03378252" lon="-1.09308709"><ele></ele><time>2014-7-3T21:2:35Z</time></trkpt>
<trkpt lat="49.03428476" lon="-1.09307435"><ele></ele><time>2014-7-3T21:2:38Z</time></trkpt>
<trkpt lat="49.03476999" lon="-1.09307393"><ele></ele><time>2014-7-3T21:2:41Z</time></trkpt>
<trkpt lat="49.03515154" lon="-1.09309346"><ele></ele><time>2014-7-3T21:2:44Z</time></trkpt>
<trkpt lat="49.03527450" lon="-1.09324065"><ele></ele><time>2014-7-3T21:2:47Z</time></trkpt>
<trkpt lat="49.03527777" lon="-1.09331416"><ele></ele><time>2014-7-3T21:2:50Z</time></trkpt>
<trkpt lat="49.03526369" lon="-1.09411740"><ele></ele><time>2014-7-3T21:2:53Z</time></trkpt>
<trkpt lat="49.03536175" lon="-1.09452652"><ele></ele><time>2014-7-3T21:2:56Z</time></trkpt>
<trkpt lat="49.03571664" lon="-1.09517553"><ele></ele><time>2014-7-3T21:2:59Z</time></trkpt>
<trkpt lat="49.03595620" lon="-1.09570107"><ele></ele><time>2014-7-3T21:3:2Z</time></trkpt>
<trkpt lat="49.03623674" lon="-1.09635369"><ele></ele><time>2014-7-3T21:3:5Z</time></trkpt>
<trkpt lat="49.03642022" lon="-1.09680497"><ele></ele><time>2014-7-3T21:3:8Z</time></trkpt>
<trkpt lat="49.03646607" lon="-1.09719129"><ele></ele><time>2014-7-3T21:3:11Z</time></trkpt>
<trkpt lat="49.03645886" lon="-1.09725835"><ele></ele><time>2014-7-3T21:3:14Z</time></trkpt>
<trkpt lat="49.03644336" lon="-1.09737259"><ele></ele><time>2014-7-3T21:3:17Z</time></trkpt>
<trkpt lat="49.03646858" lon="-1.09748684"><ele></ele><time>2014-7-3T21:3:20Z</time></trkpt>
<trkpt lat="49.03648929" lon="-1.09748684"><ele></ele><time>2014-7-3T21:3:23Z</time></trkpt>
<trkpt lat="49.03664419" lon="-1.09747183"><ele></ele><time>2014-7-3T21:3:26Z</time></trkpt>
<trkpt lat="49.03674519" lon="-1.09748734"><ele></ele><time>2014-7-3T21:3:29Z</time></trkpt>
<trkpt lat="49.03690243" lon="-1.09753512"><ele></ele><time>2014-7-3T21:3:32Z</time></trkpt>
<trkpt lat="49.03707283" lon="-1.09755876"><ele></ele><time>2014-7-3T21:3:35Z</time></trkpt>
<trkpt lat="49.03723712" lon="-1.09756462"><ele></ele><time>2014-7-3T21:3:38Z</time></trkpt>
<trkpt lat="49.03737735" lon="-1.09748667"><ele></ele><time>2014-7-3T21:3:41Z</time></trkpt>
<trkpt lat="49.03750660" lon="-1.09734787"><ele></ele><time>2014-7-3T21:3:44Z</time></trkpt>
<trkpt lat="49.03764180" lon="-1.09721325"><ele></ele><time>2014-7-3T21:3:47Z</time></trkpt>
<trkpt lat="49.03783089" lon="-1.09702986"><ele></ele><time>2014-7-3T21:3:50Z</time></trkpt>
<trkpt lat="49.03793257" lon="-1.09698644"><ele></ele><time>2014-7-3T21:3:53Z</time></trkpt>
<trkpt lat="49.03815477" lon="-1.09702852"><ele></ele><time>2014-7-3T21:3:56Z</time></trkpt>
<trkpt lat="49.03850597" lon="-1.09699206"><ele></ele><time>2014-7-3T21:3:59Z</time></trkpt>
<trkpt lat="49.03871175" lon="-1.09692852"><ele></ele><time>2014-7-3T21:4:2Z</time></trkpt>
<trkpt lat="49.03882390" lon="-1.09688812"><ele></ele><time>2014-7-3T21:4:5Z</time></trkpt>
<trkpt lat="49.03903370" lon="-1.09686256"><ele></ele><time>2014-7-3T21:4:8Z</time></trkpt>
<trkpt lat="49.03912213" lon="-1.09667773"><ele></ele><time>2014-7-3T21:4:11Z</time></trkpt>
<trkpt lat="49.03917845" lon="-1.09652803"><ele></ele><time>2014-7-3T21:4:14Z</time></trkpt>
<trkpt lat="49.03921039" lon="-1.09647187"><ele></ele><time>2014-7-3T21:4:17Z</time></trkpt>
<trkpt lat="49.03923528" lon="-1.09644933"><ele></ele><time>2014-7-3T21:4:20Z</time></trkpt>
<trkpt lat="49.03927803" lon="-1.09644799"><ele></ele><time>2014-7-3T21:4:23Z</time></trkpt>
<trkpt lat="49.03930100" lon="-1.09645545"><ele></ele><time>2014-7-3T21:4:26Z</time></trkpt>
<trkpt lat="49.03938892" lon="-1.09648755"><ele></ele><time>2014-7-3T21:4:29Z</time></trkpt>
<trkpt lat="49.03940703" lon="-1.09650792"><ele></ele><time>2014-7-3T21:4:32Z</time></trkpt>
<trkpt lat="49.03943184" lon="-1.09657514"><ele></ele><time>2014-7-3T21:4:35Z</time></trkpt>
<trkpt lat="49.03960794" lon="-1.09659274"><ele></ele><time>2014-7-3T21:4:38Z</time></trkpt>
<trkpt lat="49.03961674" lon="-1.09659098"><ele></ele><time>2014-7-3T21:4:41Z</time></trkpt>
<trkpt lat="49.03967516" lon="-1.09657019"><ele></ele><time>2014-7-3T21:4:44Z</time></trkpt>
<trkpt lat="49.03974465" lon="-1.09655938"><ele></ele><time>2014-7-3T21:4:47Z</time></trkpt>
<trkpt lat="49.03980358" lon="-1.09656366"><ele></ele><time>2014-7-3T21:4:50Z</time></trkpt>
<trkpt lat="49.03990634" lon="-1.09668226"><ele></ele><time>2014-7-3T21:4:53Z</time></trkpt>
<trkpt lat="49.03999024" lon="-1.09683808"><ele></ele><time>2014-7-3T21:4:56Z</time></trkpt>
<trkpt lat="49.04008647" lon="-1.09704159"><ele></ele><time>2014-7-3T21:4:59Z</time></trkpt>
<trkpt lat="49.04009518" lon="-1.09710337"><ele></ele><time>2014-7-3T21:5:2Z</time></trkpt>
<trkpt lat="49.04009669" lon="-1.09713782"><ele></ele><time>2014-7-3T21:5:5Z</time></trkpt>
<trkpt lat="49.04020239" lon="-1.09721988"><ele></ele><time>2014-7-3T21:5:8Z</time></trkpt>
<trkpt lat="49.04022644" lon="-1.09721594"><ele></ele><time>2014-7-3T21:5:11Z</time></trkpt>
<trkpt lat="49.04033147" lon="-1.09714033"><ele></ele><time>2014-7-3T21:5:14Z</time></trkpt>
<trkpt lat="49.04038495" lon="-1.09710127"><ele></ele><time>2014-7-3T21:5:17Z</time></trkpt>
<trkpt lat="49.04043968" lon="-1.09705224"><ele></ele><time>2014-7-3T21:5:20Z</time></trkpt>
<trkpt lat="49.04054646" lon="-1.09699055"><ele></ele><time>2014-7-3T21:5:23Z</time></trkpt>
<trkpt lat="49.04057019" lon="-1.09697889"><ele></ele><time>2014-7-3T21:5:26Z</time></trkpt>
<trkpt lat="49.04063246" lon="-1.09693078"><ele></ele><time>2014-7-3T21:5:29Z</time></trkpt>
<trkpt lat="49.04076297" lon="-1.09682542"><ele></ele><time>2014-7-3T21:5:32Z</time></trkpt>
<trkpt lat="49.04090093" lon="-1.09676063"><ele></ele><time>2014-7-3T21:5:35Z</time></trkpt>
<trkpt lat="49.04102398" lon="-1.09667924"><ele></ele><time>2014-7-3T21:5:38Z</time></trkpt>
<trkpt lat="49.04111166" lon="-1.09660758"><ele></ele><time>2014-7-3T21:5:41Z</time></trkpt>
<trkpt lat="49.04121593" lon="-1.09653004"><ele></ele><time>2014-7-3T21:5:44Z</time></trkpt>
<trkpt lat="49.04133948" lon="-1.09642829"><ele></ele><time>2014-7-3T21:5:47Z</time></trkpt>
<trkpt lat="49.04148943" lon="-1.09633139"><ele></ele><time>2014-7-3T21:5:50Z</time></trkpt>
<trkpt lat="49.04151684" lon="-1.09631823"><ele></ele><time>2014-7-3T21:5:53Z</time></trkpt>
<trkpt lat="49.04164189" lon="-1.09642577"><ele></ele><time>2014-7-3T21:5:56Z</time></trkpt>
<trkpt lat="49.04180375" lon="-1.09678016"><ele></ele><time>2014-7-3T21:5:59Z</time></trkpt>
<trkpt lat="49.04192965" lon="-1.09704285"><ele></ele><time>2014-7-3T21:6:2Z</time></trkpt>
<trkpt lat="49.04208706" lon="-1.09726237"><ele></ele><time>2014-7-3T21:6:5Z</time></trkpt>
<trkpt lat="49.04223458" lon="-1.09711477"><ele></ele><time>2014-7-3T21:6:8Z</time></trkpt>
<trkpt lat="49.04257287" lon="-1.09654907"><ele></ele><time>2014-7-3T21:6:11Z</time></trkpt>
<trkpt lat="49.04279189" lon="-1.09622972"><ele></ele><time>2014-7-3T21:6:14Z</time></trkpt>
<trkpt lat="49.04289189" lon="-1.09624556"><ele></ele><time>2014-7-3T21:6:17Z</time></trkpt>
<trkpt lat="49.04285015" lon="-1.09637314"><ele></ele><time>2014-7-3T21:6:20Z</time></trkpt>
<trkpt lat="49.04271897" lon="-1.09661336"><ele></ele><time>2014-7-3T21:6:23Z</time></trkpt>
<trkpt lat="49.04275853" lon="-1.09679994"><ele></ele><time>2014-7-3T21:6:26Z</time></trkpt>
<trkpt lat="49.04278234" lon="-1.09683682"><ele></ele><time>2014-7-3T21:6:29Z</time></trkpt>
<trkpt lat="49.04298543" lon="-1.09707026"><ele></ele><time>2014-7-3T21:6:32Z</time></trkpt>
</trkseg></trk></gpx>